Darstellungsparameter: Aktuell verwendete Einstellungen:
Skalierung der Graphiken ... ?
xyx+y,   Skalierungsfaktor:      Skalierung: Modus: x, Faktor: 1
Darstellungszeitraum ... ?
Vom - - bis: - -   Zeitraum: 15.07.2019 - 19.07.2019
Min/Max/Avg-Anzeige ... ?
Zeige MMA aktuell
Zeige MMA Monat
Zeige MMA alles
Zeige --A aktuell
Zeige --A Monat
Zeige --A alles
Keine MMA-Anzeige
MMA:
Average (ber die Originaldaten)
MMA-Basis: 15.07.2019 - 19.07.2019
Quicknavigation für Darstellung... ?
Tage:      1T, 2T, 3T, 5T -1T -2T -3T -5T +1T +2T +3T +5T
Wochen: 1W, 2W, 3W -1W -2W -3W +1W +2W +3W
Monate: 1M, 3M, 6M -1M -3M -6M +1M +3M +6M
Jahre:    1J, 3J, 5J, 10J -1J -3J -5J -10J +1J +3J +5J +10J
Nutze für die Darstellung ... ?
Originaldaten oder Mittelwerte auf ...
Stundenbasis Tagesbasis Wochenbasis
Monatsbasis Jahresbasis      Datenbasis: Original-Daten
Darstellen als:
Statistik (Auto) Statistik J:M      Darstellung:
Zur Graphik,    zurück zur Übersicht aller Sensoren.
 
Tabellarische Datenbersicht: ?
 
Sensor: Nr:Datum:Temp:Abs-Feuchte:Windchill:Wind:
Aussen-T/F 1 15-07-2019 00:00:00 16.4 C 10.61 g/m*3 16.4 C 1.6 km/h
2 15-07-2019 00:05:00 16.3 C 10.27 g/m*3 16.3 C 4.8 km/h
3 15-07-2019 00:10:00 16.3 C 10.54 g/m*3 16.3 C 1.6 km/h
4 15-07-2019 00:15:00 16.2 C 10.2 g/m*3 16.2 C 3.2 km/h
5 15-07-2019 00:20:00 16.2 C 10.34 g/m*3 16.2 C 3.2 km/h
6 15-07-2019 00:25:00 16.2 C 10.62 g/m*3 16.2 C 0 km/h
7 15-07-2019 00:30:00 16.1 C 10.55 g/m*3 16.1 C 0 km/h
8 15-07-2019 00:35:00 16 C 10.63 g/m*3 16 C 0 km/h
9 15-07-2019 00:40:00 15.9 C 10.56 g/m*3 15.9 C 0 km/h
10 15-07-2019 00:45:00 15.8 C 10.5 g/m*3 15.8 C 0 km/h
11 15-07-2019 00:50:00 15.7 C 10.57 g/m*3 15.7 C 0 km/h
12 15-07-2019 00:55:00 15.7 C 10.57 g/m*3 15.7 C 0 km/h
13 15-07-2019 01:00:00 15.6 C 10.64 g/m*3 15.6 C 0 km/h
14 15-07-2019 01:05:00 15.5 C 10.57 g/m*3 15.5 C 0 km/h
15 15-07-2019 01:10:00 15.4 C 10.51 g/m*3 15.4 C 0 km/h
16 15-07-2019 01:15:00 15.4 C 10.64 g/m*3 15.4 C 0 km/h
17 15-07-2019 01:20:00 15.4 C 10.64 g/m*3 15.4 C 3.2 km/h
18 15-07-2019 01:25:00 15.4 C 10.38 g/m*3 15.4 C 6.4 km/h
19 15-07-2019 01:30:00 15.6 C 10.37 g/m*3 15.6 C 9.7 km/h
20 15-07-2019 01:35:00 15.8 C 10.36 g/m*3 15.8 C 3.2 km/h
21 15-07-2019 01:40:00 15.8 C 10.36 g/m*3 15.8 C 3.2 km/h
22 15-07-2019 01:45:00 15.9 C 10.56 g/m*3 15.9 C 0 km/h
23 15-07-2019 01:50:00 15.9 C 10.43 g/m*3 15.9 C 3.2 km/h
24 15-07-2019 01:55:00 15.9 C 10.43 g/m*3 15.9 C 3.2 km/h
25 15-07-2019 02:00:00 15.8 C 10.36 g/m*3 15.8 C 1.6 km/h
Sensor: Nr:Datum:Temp:Abs-Feuchte:Windchill:Wind:
Aussen-T/F 26 15-07-2019 02:05:00 15.8 C 10.5 g/m*3 15.8 C 0 km/h
27 15-07-2019 02:10:00 15.8 C 10.63 g/m*3 15.8 C 0 km/h
28 15-07-2019 02:15:00 15.8 C 10.77 g/m*3 15.8 C 0 km/h
29 15-07-2019 02:20:00 15.7 C 10.7 g/m*3 15.7 C 0 km/h
30 15-07-2019 02:25:00 15.7 C 10.84 g/m*3 15.7 C 0 km/h
31 15-07-2019 02:30:00 15.6 C 10.77 g/m*3 15.6 C 0 km/h
32 15-07-2019 02:35:00 15.4 C 10.64 g/m*3 15.4 C 0 km/h
33 15-07-2019 02:40:00 15.4 C 10.64 g/m*3 15.4 C 0 km/h
34 15-07-2019 02:45:00 15.3 C 10.71 g/m*3 15.3 C 0 km/h
35 15-07-2019 02:50:00 15.2 C 10.64 g/m*3 15.2 C 0 km/h
36 15-07-2019 02:55:00 15.2 C 10.64 g/m*3 15.2 C 0 km/h
37 15-07-2019 03:00:00 15.2 C 10.77 g/m*3 15.2 C 0 km/h
38 15-07-2019 03:05:00 15.1 C 10.71 g/m*3 15.1 C 0 km/h
39 15-07-2019 03:10:00 15.1 C 10.71 g/m*3 15.1 C 0 km/h
40 15-07-2019 03:15:00 15.1 C 10.71 g/m*3 15.1 C 0 km/h
41 15-07-2019 03:20:00 15 C 10.77 g/m*3 15 C 0 km/h
42 15-07-2019 03:25:00 15 C 10.64 g/m*3 15 C 0 km/h
43 15-07-2019 03:30:00 14.9 C 10.71 g/m*3 14.9 C 0 km/h
44 15-07-2019 03:35:00 14.9 C 10.71 g/m*3 14.9 C 0 km/h
45 15-07-2019 03:40:00 14.9 C 10.71 g/m*3 14.9 C 0 km/h
46 15-07-2019 03:45:00 14.9 C 10.58 g/m*3 14.9 C 0 km/h
47 15-07-2019 03:50:00 14.9 C 10.71 g/m*3 14.9 C 0 km/h
48 15-07-2019 03:55:00 14.9 C 10.71 g/m*3 14.9 C 0 km/h
49 15-07-2019 04:00:00 14.8 C 10.39 g/m*3 14.8 C 0 km/h
50 15-07-2019 04:05:00 14.8 C 10.13 g/m*3 14.8 C 0 km/h
Sensor: Nr:Datum:Temp:Abs-Feuchte:Windchill:Wind:
Aussen-T/F 51 15-07-2019 04:10:00 14.9 C 9.94 g/m*3 14.9 C 3.2 km/h
52 15-07-2019 04:15:00 15.2 C 9.99 g/m*3 15.2 C 6.4 km/h
53 15-07-2019 04:20:00 15.3 C 10.19 g/m*3 15.3 C 3.2 km/h
54 15-07-2019 04:25:00 15.4 C 10.25 g/m*3 15.4 C 3.2 km/h
55 15-07-2019 04:30:00 15.5 C 10.31 g/m*3 15.5 C 4.8 km/h
56 15-07-2019 04:35:00 15.5 C 10.31 g/m*3 15.5 C 3.2 km/h
57 15-07-2019 04:40:00 15.5 C 10.31 g/m*3 15.5 C 3.2 km/h
58 15-07-2019 04:45:00 15.6 C 10.37 g/m*3 15.6 C 3.2 km/h
59 15-07-2019 04:50:00 15.6 C 10.24 g/m*3 15.6 C 1.6 km/h
60 15-07-2019 04:55:00 15.6 C 10.24 g/m*3 15.6 C 0 km/h
61 15-07-2019 05:00:00 15.6 C 9.97 g/m*3 15.6 C 8.1 km/h
62 15-07-2019 05:05:00 15.7 C 10.03 g/m*3 15.7 C 8.1 km/h
63 15-07-2019 05:10:00 15.7 C 9.9 g/m*3 15.7 C 6.4 km/h
64 15-07-2019 05:15:00 15.7 C 9.9 g/m*3 15.7 C 6.4 km/h
65 15-07-2019 05:20:00 15.7 C 9.9 g/m*3 15.7 C 1.6 km/h
66 15-07-2019 05:25:00 15.7 C 10.03 g/m*3 15.7 C 6.4 km/h
67 15-07-2019 05:30:00 15.7 C 10.17 g/m*3 15.7 C 4.8 km/h
68 15-07-2019 05:35:00 15.6 C 9.97 g/m*3 15.6 C 0 km/h
69 15-07-2019 05:40:00 15.6 C 9.84 g/m*3 15.6 C 3.2 km/h
70 15-07-2019 05:45:00 15.6 C 9.84 g/m*3 15.6 C 4.8 km/h
71 15-07-2019 05:50:00 15.6 C 9.84 g/m*3 15.6 C 3.2 km/h
72 15-07-2019 05:55:00 15.6 C 9.71 g/m*3 15.6 C 4.8 km/h
73 15-07-2019 06:00:00 15.6 C 9.84 g/m*3 15.6 C 1.6 km/h
74 15-07-2019 06:05:00 15.6 C 9.84 g/m*3 15.6 C 0 km/h
75 15-07-2019 06:10:00 15.6 C 9.84 g/m*3 15.6 C 4.8 km/h
Sensor: Nr:Datum:Temp:Abs-Feuchte:Windchill:Wind:
Aussen-T/F 76 15-07-2019 06:15:00 15.6 C 9.84 g/m*3 15.6 C 4.8 km/h
77 15-07-2019 06:20:00 15.6 C 9.84 g/m*3 15.6 C 1.6 km/h
78 15-07-2019 06:25:00 15.6 C 9.84 g/m*3 15.6 C 3.2 km/h
79 15-07-2019 06:30:00 15.6 C 9.84 g/m*3 15.6 C 3.2 km/h
80 15-07-2019 06:35:00 15.6 C 9.84 g/m*3 15.6 C 3.2 km/h
81 15-07-2019 06:40:00 15.6 C 9.84 g/m*3 15.6 C 3.2 km/h
82 15-07-2019 06:45:00 15.6 C 9.84 g/m*3 15.6 C 6.4 km/h
83 15-07-2019 06:50:00 15.6 C 9.97 g/m*3 15.6 C 4.8 km/h
84 15-07-2019 06:55:00 15.6 C 9.97 g/m*3 15.6 C 3.2 km/h
85 15-07-2019 07:00:00 15.6 C 9.97 g/m*3 15.6 C 3.2 km/h
86 15-07-2019 07:05:00 15.7 C 10.03 g/m*3 15.7 C 1.6 km/h
87 15-07-2019 07:10:00 15.7 C 10.03 g/m*3 15.7 C 3.2 km/h
88 15-07-2019 07:15:00 15.7 C 9.9 g/m*3 15.7 C 4.8 km/h
89 15-07-2019 07:20:00 15.7 C 10.03 g/m*3 15.7 C 4.8 km/h
90 15-07-2019 07:25:00 15.7 C 9.9 g/m*3 15.7 C 3.2 km/h
91 15-07-2019 07:30:00 15.7 C 9.77 g/m*3 15.7 C 6.4 km/h
92 15-07-2019 07:35:00 15.7 C 9.77 g/m*3 15.7 C 8.1 km/h
93 15-07-2019 07:40:00 15.7 C 9.77 g/m*3 15.7 C 4.8 km/h
94 15-07-2019 07:45:00 15.7 C 9.77 g/m*3 15.7 C 9.7 km/h
95 15-07-2019 07:50:00 15.7 C 9.9 g/m*3 15.7 C 6.4 km/h
96 15-07-2019 07:55:00 15.7 C 9.9 g/m*3 15.7 C 9.7 km/h
97 15-07-2019 08:00:00 15.7 C 9.9 g/m*3 15.7 C 9.7 km/h
98 15-07-2019 08:05:00 15.7 C 9.9 g/m*3 15.7 C 9.7 km/h
99 15-07-2019 08:10:00 15.7 C 10.03 g/m*3 15.7 C 3.2 km/h
100 15-07-2019 08:15:00 15.7 C 9.9 g/m*3 15.7 C 6.4 km/h
Sensor: Nr:Datum:Temp:Abs-Feuchte:Windchill:Wind:
Aussen-T/F 101 15-07-2019 08:20:00 15.7 C 9.9 g/m*3 15.7 C 8.1 km/h
102 15-07-2019 08:25:00 15.7 C 9.9 g/m*3 15.7 C 6.4 km/h
103 15-07-2019 08:30:00 15.8 C 9.96 g/m*3 15.8 C 4.8 km/h
104 15-07-2019 08:35:00 15.8 C 10.1 g/m*3 15.8 C 3.2 km/h
105 15-07-2019 08:40:00 15.9 C 10.02 g/m*3 15.9 C 11.3 km/h
106 15-07-2019 08:45:00 16 C 10.08 g/m*3 16 C 6.4 km/h
107 15-07-2019 08:50:00 16.1 C 10.01 g/m*3 16.1 C 6.4 km/h
108 15-07-2019 08:55:00 16.2 C 10.2 g/m*3 16.2 C 4.8 km/h
109 15-07-2019 09:00:00 16.3 C 10.13 g/m*3 16.3 C 8.1 km/h
110 15-07-2019 09:05:00 16.3 C 10.13 g/m*3 16.3 C 8.1 km/h
111 15-07-2019 09:10:00 16.3 C 9.99 g/m*3 16.3 C 6.4 km/h
112 15-07-2019 09:15:00 16.4 C 10.05 g/m*3 16.4 C 9.7 km/h
113 15-07-2019 09:20:00 16.4 C 9.91 g/m*3 16.4 C 9.7 km/h
114 15-07-2019 09:25:00 16.5 C 10.11 g/m*3 16.5 C 6.4 km/h
115 15-07-2019 09:30:00 16.6 C 10.17 g/m*3 16.6 C 4.8 km/h
116 15-07-2019 09:35:00 16.7 C 9.95 g/m*3 16.7 C 6.4 km/h
117 15-07-2019 09:40:00 16.7 C 9.95 g/m*3 16.7 C 0 km/h
118 15-07-2019 09:45:00 16.7 C 10.23 g/m*3 16.7 C 3.2 km/h
119 15-07-2019 09:50:00 16.7 C 9.95 g/m*3 16.7 C 6.4 km/h
120 15-07-2019 09:55:00 16.8 C 10.01 g/m*3 16.8 C 8.1 km/h
121 15-07-2019 10:00:00 16.8 C 10.01 g/m*3 16.8 C 0 km/h
122 15-07-2019 10:05:00 16.8 C 10.01 g/m*3 16.8 C 4.8 km/h
123 15-07-2019 10:10:00 16.8 C 9.87 g/m*3 16.8 C 6.4 km/h
124 15-07-2019 10:15:00 16.8 C 9.87 g/m*3 16.8 C 0 km/h
125 15-07-2019 10:20:00 16.8 C 10.01 g/m*3 16.8 C 4.8 km/h
Sensor: Nr:Datum:Temp:Abs-Feuchte:Windchill:Wind:
Aussen-T/F 126 15-07-2019 10:25:00 16.8 C 10.29 g/m*3 16.8 C 9.7 km/h
127 15-07-2019 10:30:00 16.8 C 10.58 g/m*3 16.8 C 6.4 km/h
128 15-07-2019 10:35:00 16.8 C 10.58 g/m*3 16.8 C 6.4 km/h
129 15-07-2019 10:40:00 16.8 C 10.58 g/m*3 16.8 C 6.4 km/h
130 15-07-2019 10:45:00 16.8 C 10.72 g/m*3 16.8 C 6.4 km/h
131 15-07-2019 10:50:00 16.8 C 10.72 g/m*3 16.8 C 6.4 km/h
132 15-07-2019 10:55:00 16.8 C 10.58 g/m*3 16.8 C 8.1 km/h
133 15-07-2019 11:00:00 16.8 C 10.72 g/m*3 16.8 C 9.7 km/h
134 15-07-2019 11:05:00 16.8 C 10.58 g/m*3 16.8 C 4.8 km/h
135 15-07-2019 11:10:00 16.8 C 10.58 g/m*3 16.8 C 4.8 km/h
136 15-07-2019 11:15:00 16.8 C 10.72 g/m*3 16.8 C 4.8 km/h
137 15-07-2019 11:20:00 16.8 C 10.58 g/m*3 16.8 C 9.7 km/h
138 15-07-2019 11:25:00 16.8 C 10.58 g/m*3 16.8 C 9.7 km/h
139 15-07-2019 11:30:00 16.8 C 10.58 g/m*3 16.8 C 6.4 km/h
140 15-07-2019 11:35:00 16.8 C 10.58 g/m*3 16.8 C 11.3 km/h
141 15-07-2019 11:40:00 16.9 C 10.79 g/m*3 16.9 C 9.7 km/h
142 15-07-2019 11:45:00 16.9 C 10.79 g/m*3 16.9 C 3.2 km/h
143 15-07-2019 11:50:00 16.9 C 10.79 g/m*3 16.9 C 8.1 km/h
144 15-07-2019 11:55:00 17 C 10.71 g/m*3 17 C 8.1 km/h
145 15-07-2019 12:00:00 17 C 10.71 g/m*3 17 C 9.7 km/h
146 15-07-2019 12:05:00 17 C 10.71 g/m*3 17 C 12.9 km/h
147 15-07-2019 12:10:00 17.1 C 10.63 g/m*3 17.1 C 9.7 km/h
148 15-07-2019 12:15:00 17 C 10.42 g/m*3 17 C 12.9 km/h
149 15-07-2019 12:20:00 17.1 C 10.48 g/m*3 17.1 C 9.7 km/h
150 15-07-2019 12:25:00 17.1 C 10.63 g/m*3 17.1 C 8.1 km/h
Sensor: Nr:Datum:Temp:Abs-Feuchte:Windchill:Wind:
Aussen-T/F 151 15-07-2019 12:30:00 17.1 C 10.63 g/m*3 17.1 C 9.7 km/h
152 15-07-2019 12:35:00 17.2 C 10.69 g/m*3 17.2 C 8.1 km/h
153 15-07-2019 12:40:00 17.2 C 10.54 g/m*3 17.2 C 8.1 km/h
154 15-07-2019 12:45:00 17.2 C 10.54 g/m*3 17.2 C 8.1 km/h
155 15-07-2019 12:50:00 17.2 C 10.69 g/m*3 17.2 C 9.7 km/h
156 15-07-2019 12:55:00 17.1 C 10.63 g/m*3 17.1 C 9.7 km/h
157 15-07-2019 13:00:00 17.2 C 10.54 g/m*3 17.2 C 9.7 km/h
158 15-07-2019 13:05:00 17.2 C 10.4 g/m*3 17.2 C 8.1 km/h
159 15-07-2019 13:10:00 17.2 C 10.54 g/m*3 17.2 C 11.3 km/h
160 15-07-2019 13:15:00 17.3 C 10.31 g/m*3 17.3 C 11.3 km/h
161 15-07-2019 13:20:00 17.3 C 10.31 g/m*3 17.3 C 12.9 km/h
162 15-07-2019 13:25:00 17.4 C 10.37 g/m*3 17.4 C 9.7 km/h
163 15-07-2019 13:30:00 17.6 C 10.5 g/m*3 17.6 C 8.1 km/h
164 15-07-2019 13:35:00 17.6 C 10.35 g/m*3 17.6 C 11.3 km/h
165 15-07-2019 13:40:00 17.7 C 10.41 g/m*3 17.7 C 8.1 km/h
166 15-07-2019 13:45:00 17.8 C 10.32 g/m*3 17.8 C 16.1 km/h
167 15-07-2019 13:50:00 17.8 C 10.32 g/m*3 17.8 C 16.1 km/h
168 15-07-2019 13:55:00 17.8 C 10.32 g/m*3 17.8 C 14.5 km/h
169 15-07-2019 14:00:00 17.9 C 10.38 g/m*3 17.9 C 14.5 km/h
170 15-07-2019 14:05:00 17.9 C 10.23 g/m*3 17.9 C 12.9 km/h
171 15-07-2019 14:10:00 18.1 C 10.2 g/m*3 18.1 C 12.9 km/h
172 15-07-2019 14:15:00 18.1 C 10.2 g/m*3 18.1 C 12.9 km/h
173 15-07-2019 14:20:00 18.2 C 10.26 g/m*3 18.2 C 12.9 km/h
174 15-07-2019 14:25:00 18.1 C 10.2 g/m*3 18.1 C 11.3 km/h
175 15-07-2019 14:30:00 18.2 C 10.26 g/m*3 18.2 C 11.3 km/h
Sensor: Nr:Datum:Temp:Abs-Feuchte:Windchill:Wind:
Aussen-T/F 176 15-07-2019 14:35:00 18.2 C 10.26 g/m*3 18.2 C 12.9 km/h
177 15-07-2019 14:40:00 18.2 C 10.26 g/m*3 18.2 C 12.9 km/h
178 15-07-2019 14:45:00 18.1 C 10.2 g/m*3 18.1 C 16.1 km/h
179 15-07-2019 14:50:00 18.1 C 10.2 g/m*3 18.1 C 12.9 km/h
180 15-07-2019 14:55:00 18 C 10.29 g/m*3 18 C 6.4 km/h
181 15-07-2019 15:00:00 18.1 C 10.35 g/m*3 18.1 C 9.7 km/h
182 15-07-2019 15:05:00 18.1 C 10.2 g/m*3 18.1 C 11.3 km/h
183 15-07-2019 15:10:00 17.9 C 10.23 g/m*3 17.9 C 14.5 km/h
184 15-07-2019 15:15:00 17.9 C 10.23 g/m*3 17.9 C 16.1 km/h
185 15-07-2019 15:20:00 17.7 C 10.26 g/m*3 17.7 C 8.1 km/h
186 15-07-2019 15:25:00 17.7 C 10.26 g/m*3 17.7 C 9.7 km/h
187 15-07-2019 15:30:00 17.6 C 10.05 g/m*3 17.6 C 9.7 km/h
188 15-07-2019 15:35:00 17.6 C 10.2 g/m*3 17.6 C 14.5 km/h
189 15-07-2019 15:40:00 17.4 C 10.08 g/m*3 17.4 C 11.3 km/h
190 15-07-2019 15:45:00 17.4 C 10.23 g/m*3 17.4 C 9.7 km/h
191 15-07-2019 15:50:00 17.4 C 10.37 g/m*3 17.4 C 8.1 km/h
192 15-07-2019 15:55:00 17.4 C 10.37 g/m*3 17.4 C 6.4 km/h
193 15-07-2019 16:00:00 17.4 C 10.23 g/m*3 17.4 C 9.7 km/h
194 15-07-2019 16:05:00 17.3 C 10.16 g/m*3 17.3 C 8.1 km/h
195 15-07-2019 16:10:00 17.3 C 10.31 g/m*3 17.3 C 8.1 km/h
196 15-07-2019 16:15:00 17.2 C 10.25 g/m*3 17.2 C 12.9 km/h
197 15-07-2019 16:20:00 17.2 C 10.25 g/m*3 17.2 C 9.7 km/h
198 15-07-2019 16:25:00 17.1 C 10.34 g/m*3 17.1 C 9.7 km/h
199 15-07-2019 16:30:00 17.1 C 10.34 g/m*3 17.1 C 12.9 km/h
200 15-07-2019 16:35:00 17.1 C 10.34 g/m*3 17.1 C 9.7 km/h
Sensor: Nr:Datum:Temp:Abs-Feuchte:Windchill:Wind:
Aussen-T/F 201 15-07-2019 16:40:00 17 C 10.27 g/m*3 17 C 6.4 km/h
202 15-07-2019 16:45:00 16.9 C 10.21 g/m*3 16.9 C 6.4 km/h
203 15-07-2019 16:50:00 16.9 C 10.21 g/m*3 16.9 C 4.8 km/h
204 15-07-2019 16:55:00 16.9 C 10.36 g/m*3 16.9 C 6.4 km/h
205 15-07-2019 17:00:00 16.9 C 10.21 g/m*3 16.9 C 8.1 km/h
206 15-07-2019 17:05:00 16.9 C 10.21 g/m*3 16.9 C 6.4 km/h
207 15-07-2019 17:10:00 16.9 C 10.21 g/m*3 16.9 C 12.9 km/h
208 15-07-2019 17:15:00 16.9 C 10.36 g/m*3 16.9 C 8.1 km/h
209 15-07-2019 17:20:00 16.8 C 10.15 g/m*3 16.8 C 9.7 km/h
210 15-07-2019 17:25:00 16.8 C 10.29 g/m*3 16.8 C 6.4 km/h
211 15-07-2019 17:30:00 16.8 C 10.29 g/m*3 16.8 C 8.1 km/h
212 15-07-2019 17:35:00 16.7 C 10.23 g/m*3 16.7 C 9.7 km/h
213 15-07-2019 17:40:00 16.7 C 10.23 g/m*3 16.7 C 9.7 km/h
214 15-07-2019 17:45:00 16.7 C 10.23 g/m*3 16.7 C 9.7 km/h
215 15-07-2019 17:50:00 16.6 C 10.17 g/m*3 16.6 C 6.4 km/h
216 15-07-2019 17:55:00 16.6 C 10.17 g/m*3 16.6 C 9.7 km/h
217 15-07-2019 18:00:00 16.6 C 10.17 g/m*3 16.6 C 6.4 km/h
218 15-07-2019 18:05:00 16.7 C 10.23 g/m*3 16.7 C 8.1 km/h
219 15-07-2019 18:10:00 16.6 C 10.17 g/m*3 16.6 C 6.4 km/h
220 15-07-2019 18:15:00 16.6 C 10.17 g/m*3 16.6 C 8.1 km/h
221 15-07-2019 18:20:00 16.6 C 10.17 g/m*3 16.6 C 3.2 km/h
222 15-07-2019 18:25:00 16.6 C 10.17 g/m*3 16.6 C 9.7 km/h
223 15-07-2019 18:30:00 16.7 C 10.23 g/m*3 16.7 C 6.4 km/h
224 15-07-2019 18:35:00 16.7 C 10.09 g/m*3 16.7 C 6.4 km/h
225 15-07-2019 18:40:00 16.7 C 10.09 g/m*3 16.7 C 6.4 km/h
Sensor: Nr:Datum:Temp:Abs-Feuchte:Windchill:Wind:
Aussen-T/F 226 15-07-2019 18:45:00 16.8 C 10.15 g/m*3 16.8 C 9.7 km/h
227 15-07-2019 18:50:00 16.8 C 10.15 g/m*3 16.8 C 4.8 km/h
228 15-07-2019 18:55:00 16.9 C 10.21 g/m*3 16.9 C 3.2 km/h
229 15-07-2019 19:00:00 16.9 C 10.07 g/m*3 16.9 C 6.4 km/h
230 15-07-2019 19:05:00 16.9 C 10.21 g/m*3 16.9 C 6.4 km/h
231 15-07-2019 19:10:00 16.8 C 10.15 g/m*3 16.8 C 11.3 km/h
232 15-07-2019 19:15:00 16.8 C 10.15 g/m*3 16.8 C 8.1 km/h
233 15-07-2019 19:20:00 16.8 C 10.15 g/m*3 16.8 C 1.6 km/h
234 15-07-2019 19:25:00 16.8 C 10.29 g/m*3 16.8 C 0 km/h
235 15-07-2019 19:30:00 16.8 C 10.15 g/m*3 16.8 C 6.4 km/h
236 15-07-2019 19:35:00 16.8 C 10.15 g/m*3 16.8 C 8.1 km/h
237 15-07-2019 19:40:00 16.7 C 10.09 g/m*3 16.7 C 1.6 km/h
238 15-07-2019 19:45:00 16.7 C 10.09 g/m*3 16.7 C 0 km/h
239 15-07-2019 19:50:00 16.7 C 10.09 g/m*3 16.7 C 4.8 km/h
240 15-07-2019 19:55:00 16.7 C 10.09 g/m*3 16.7 C 6.4 km/h
241 15-07-2019 20:00:00 16.7 C 9.95 g/m*3 16.7 C 8.1 km/h
242 15-07-2019 20:05:00 16.7 C 10.09 g/m*3 16.7 C 6.4 km/h
243 15-07-2019 20:10:00 16.7 C 10.09 g/m*3 16.7 C 4.8 km/h
244 15-07-2019 20:15:00 16.7 C 10.09 g/m*3 16.7 C 4.8 km/h
245 15-07-2019 20:20:00 16.7 C 10.09 g/m*3 16.7 C 4.8 km/h
246 15-07-2019 20:25:00 16.7 C 10.09 g/m*3 16.7 C 4.8 km/h
247 15-07-2019 20:30:00 16.7 C 10.09 g/m*3 16.7 C 3.2 km/h
248 15-07-2019 20:35:00 16.7 C 10.09 g/m*3 16.7 C 0 km/h
249 15-07-2019 20:40:00 16.7 C 10.23 g/m*3 16.7 C 0 km/h
250 15-07-2019 20:45:00 16.7 C 10.09 g/m*3 16.7 C 0 km/h
Sensor: Nr:Datum:Temp:Abs-Feuchte:Windchill:Wind:
Aussen-T/F 251 15-07-2019 20:50:00 16.7 C 10.09 g/m*3 16.7 C 8.1 km/h
252 15-07-2019 20:55:00 16.6 C 10.17 g/m*3 16.6 C 3.2 km/h
253 15-07-2019 21:00:00 16.6 C 10.17 g/m*3 16.6 C 3.2 km/h
254 15-07-2019 21:05:00 16.5 C 10.11 g/m*3 16.5 C 4.8 km/h
255 15-07-2019 21:10:00 16.4 C 10.05 g/m*3 16.4 C 4.8 km/h
256 15-07-2019 21:15:00 16.4 C 10.19 g/m*3 16.4 C 4.8 km/h
257 15-07-2019 21:20:00 16.4 C 10.19 g/m*3 16.4 C 3.2 km/h
258 15-07-2019 21:25:00 16.3 C 10.13 g/m*3 16.3 C 1.6 km/h
259 15-07-2019 21:30:00 16.3 C 10.13 g/m*3 16.3 C 3.2 km/h
260 15-07-2019 21:35:00 16.3 C 10.13 g/m*3 16.3 C 0 km/h
261 15-07-2019 21:40:00 16.3 C 10.54 g/m*3 16.3 C 0 km/h
262 15-07-2019 21:45:00 16.3 C 10.68 g/m*3 16.3 C 0 km/h
263 15-07-2019 21:50:00 16.2 C 10.62 g/m*3 16.2 C 0 km/h
264 15-07-2019 21:55:00 16.1 C 10.42 g/m*3 16.1 C 0 km/h
265 15-07-2019 22:00:00 16 C 10.49 g/m*3 16 C 0 km/h
266 15-07-2019 22:05:00 15.9 C 10.56 g/m*3 15.9 C 0 km/h
267 15-07-2019 22:10:00 15.8 C 10.5 g/m*3 15.8 C 0 km/h
268 15-07-2019 22:15:00 15.8 C 10.63 g/m*3 15.8 C 0 km/h
269 15-07-2019 22:20:00 15.7 C 10.7 g/m*3 15.7 C 0 km/h
270 15-07-2019 22:25:00 15.6 C 10.64 g/m*3 15.6 C 0 km/h
271 15-07-2019 22:30:00 15.6 C 10.64 g/m*3 15.6 C 0 km/h
272 15-07-2019 22:35:00 15.5 C 10.71 g/m*3 15.5 C 0 km/h
273 15-07-2019 22:40:00 15.4 C 10.51 g/m*3 15.4 C 0 km/h
274 15-07-2019 22:45:00 15.4 C 10.64 g/m*3 15.4 C 0 km/h
275 15-07-2019 22:50:00 15.4 C 10.64 g/m*3 15.4 C 0 km/h
Sensor: Nr:Datum:Temp:Abs-Feuchte:Windchill:Wind:
Aussen-T/F 276 15-07-2019 22:55:00 15.3 C 10.32 g/m*3 15.3 C 0 km/h
277 15-07-2019 23:00:00 15.3 C 10.32 g/m*3 15.3 C 0 km/h
278 15-07-2019 23:05:00 15.3 C 10.19 g/m*3 15.3 C 3.2 km/h
279 15-07-2019 23:10:00 15.4 C 10.12 g/m*3 15.4 C 1.6 km/h
280 15-07-2019 23:15:00 15.5 C 10.18 g/m*3 15.5 C 0 km/h
281 15-07-2019 23:20:00 15.6 C 10.24 g/m*3 15.6 C 0 km/h
282 15-07-2019 23:25:00 15.6 C 10.24 g/m*3 15.6 C 1.6 km/h
283 15-07-2019 23:30:00 15.6 C 10.24 g/m*3 15.6 C 3.2 km/h
284 15-07-2019 23:35:00 15.6 C 10.11 g/m*3 15.6 C 1.6 km/h
285 15-07-2019 23:40:00 15.5 C 10.18 g/m*3 15.5 C 0 km/h
286 15-07-2019 23:45:00 15.4 C 10.12 g/m*3 15.4 C 0 km/h
287 15-07-2019 23:50:00 15.3 C 10.06 g/m*3 15.3 C 0 km/h
288 15-07-2019 23:55:00 15.2 C 10.12 g/m*3 15.2 C 0 km/h
289 16-07-2019 00:00:00 15.1 C 10.19 g/m*3 15.1 C 0 km/h
290 16-07-2019 00:05:00 15 C 10.26 g/m*3 15 C 0 km/h
291 16-07-2019 00:10:00 14.9 C 10.07 g/m*3 14.9 C 0 km/h
292 16-07-2019 00:15:00 14.8 C 10.13 g/m*3 14.8 C 0 km/h
293 16-07-2019 00:20:00 14.8 C 10.13 g/m*3 14.8 C 0 km/h
294 16-07-2019 00:25:00 14.7 C 10.07 g/m*3 14.7 C 0 km/h
295 16-07-2019 00:30:00 14.7 C 9.95 g/m*3 14.7 C 0 km/h
296 16-07-2019 00:35:00 14.7 C 10.2 g/m*3 14.7 C 0 km/h
297 16-07-2019 00:40:00 14.6 C 10.01 g/m*3 14.6 C 0 km/h
298 16-07-2019 00:45:00 14.6 C 10.01 g/m*3 14.6 C 0 km/h
299 16-07-2019 00:50:00 14.6 C 10.01 g/m*3 14.6 C 0 km/h
300 16-07-2019 00:55:00 14.5 C 9.95 g/m*3 14.5 C 0 km/h
Sensor: Nr:Datum:Temp:Abs-Feuchte:Windchill:Wind:
Aussen-T/F 301 16-07-2019 01:00:00 14.4 C 9.77 g/m*3 14.4 C 0 km/h
302 16-07-2019 01:05:00 14.3 C 9.71 g/m*3 14.3 C 0 km/h
303 16-07-2019 01:10:00 14.2 C 9.65 g/m*3 14.2 C 0 km/h
304 16-07-2019 01:15:00 14 C 9.53 g/m*3 14 C 0 km/h
305 16-07-2019 01:20:00 13.9 C 9.47 g/m*3 13.9 C 0 km/h
306 16-07-2019 01:25:00 13.7 C 9.47 g/m*3 13.7 C 0 km/h
307 16-07-2019 01:30:00 13.6 C 9.53 g/m*3 13.6 C 0 km/h
308 16-07-2019 01:35:00 13.4 C 9.42 g/m*3 13.4 C 0 km/h
309 16-07-2019 01:40:00 13.3 C 9.36 g/m*3 13.3 C 0 km/h
310 16-07-2019 01:45:00 13.2 C 9.42 g/m*3 13.2 C 0 km/h
311 16-07-2019 01:50:00 13.1 C 9.36 g/m*3 13.1 C 0 km/h
312 16-07-2019 01:55:00 13 C 9.3 g/m*3 13 C 0 km/h
313 16-07-2019 02:00:00 12.9 C 9.35 g/m*3 12.9 C 0 km/h
314 16-07-2019 02:05:00 12.8 C 9.3 g/m*3 12.8 C 0 km/h
315 16-07-2019 02:10:00 12.7 C 9.35 g/m*3 12.7 C 0 km/h
316 16-07-2019 02:15:00 12.6 C 9.29 g/m*3 12.6 C 0 km/h
317 16-07-2019 02:20:00 12.5 C 9.35 g/m*3 12.5 C 0 km/h
318 16-07-2019 02:25:00 12.4 C 9.29 g/m*3 12.4 C 0 km/h
319 16-07-2019 02:30:00 12.2 C 9.28 g/m*3 12.2 C 0 km/h
320 16-07-2019 02:35:00 12.1 C 9.22 g/m*3 12.1 C 0 km/h
321 16-07-2019 02:40:00 11.9 C 9.21 g/m*3 11.9 C 0 km/h
322 16-07-2019 02:45:00 11.7 C 9.1 g/m*3 11.7 C 0 km/h
323 16-07-2019 02:50:00 11.6 C 9.15 g/m*3 11.6 C 0 km/h
324 16-07-2019 02:55:00 11.4 C 9.03 g/m*3 11.4 C 0 km/h
325 16-07-2019 03:00:00 11.3 C 8.98 g/m*3 11.3 C 0 km/h
Sensor: Nr:Datum:Temp:Abs-Feuchte:Windchill:Wind:
Aussen-T/F 326 16-07-2019 03:05:00 11.2 C 9.02 g/m*3 11.2 C 0 km/h
327 16-07-2019 03:10:00 11.2 C 9.12 g/m*3 11.2 C 0 km/h
328 16-07-2019 03:15:00 11.1 C 9.07 g/m*3 11.1 C 0 km/h
329 16-07-2019 03:20:00 10.9 C 8.95 g/m*3 10.9 C 0 km/h
330 16-07-2019 03:25:00 10.9 C 8.95 g/m*3 10.9 C 0 km/h
331 16-07-2019 03:30:00 10.8 C 8.99 g/m*3 10.8 C 0 km/h
332 16-07-2019 03:35:00 10.8 C 8.99 g/m*3 10.8 C 0 km/h
333 16-07-2019 03:40:00 10.7 C 8.94 g/m*3 10.7 C 0 km/h
334 16-07-2019 03:45:00 10.7 C 8.94 g/m*3 10.7 C 0 km/h
335 16-07-2019 03:50:00 10.6 C 8.88 g/m*3 10.6 C 0 km/h
336 16-07-2019 03:55:00 10.6 C 8.88 g/m*3 10.6 C 0 km/h
337 16-07-2019 04:00:00 10.6 C 8.98 g/m*3 10.6 C 0 km/h
338 16-07-2019 04:05:00 10.5 C 8.92 g/m*3 10.5 C 0 km/h
339 16-07-2019 04:10:00 10.5 C 8.92 g/m*3 10.5 C 0 km/h
340 16-07-2019 04:15:00 10.4 C 8.87 g/m*3 10.4 C 0 km/h
341 16-07-2019 04:20:00 10.3 C 8.81 g/m*3 10.3 C 0 km/h
342 16-07-2019 04:25:00 10.3 C 8.81 g/m*3 10.3 C 0 km/h
343 16-07-2019 04:30:00 10.2 C 8.76 g/m*3 10.2 C 0 km/h
344 16-07-2019 04:35:00 10.2 C 8.76 g/m*3 10.2 C 0 km/h
345 16-07-2019 04:40:00 10.1 C 8.7 g/m*3 10.1 C 0 km/h
346 16-07-2019 04:45:00 10.1 C 8.79 g/m*3 10.1 C 0 km/h
347 16-07-2019 04:50:00 10.1 C 8.79 g/m*3 10.1 C 0 km/h
348 16-07-2019 04:55:00 10.1 C 8.79 g/m*3 10.1 C 0 km/h
349 16-07-2019 05:00:00 10.1 C 8.79 g/m*3 10.1 C 0 km/h
350 16-07-2019 05:05:00 10.2 C 8.85 g/m*3 10.2 C 0 km/h
Sensor: Nr:Datum:Temp:Abs-Feuchte:Windchill:Wind:
Aussen-T/F 351 16-07-2019 05:10:00 10.1 C 8.79 g/m*3 10.1 C 0 km/h
352 16-07-2019 05:15:00 10.1 C 8.79 g/m*3 10.1 C 0 km/h
353 16-07-2019 05:20:00 10.1 C 8.79 g/m*3 10.1 C 0 km/h
354 16-07-2019 05:25:00 10 C 8.74 g/m*3 10 C 0 km/h
355 16-07-2019 05:30:00 10 C 8.74 g/m*3 10 C 0 km/h
356 16-07-2019 05:35:00 9.9 C 8.68 g/m*3 9.9 C 0 km/h
357 16-07-2019 05:40:00 9.9 C 8.68 g/m*3 9.9 C 0 km/h
358 16-07-2019 05:45:00 9.8 C 8.63 g/m*3 9.8 C 0 km/h
359 16-07-2019 05:50:00 9.8 C 8.72 g/m*3 9.8 C 0 km/h
360 16-07-2019 05:55:00 9.8 C 8.72 g/m*3 9.8 C 0 km/h
361 16-07-2019 06:00:00 9.9 C 8.78 g/m*3 9.9 C 0 km/h
362 16-07-2019 06:05:00 9.9 C 8.78 g/m*3 9.9 C 0 km/h
363 16-07-2019 06:10:00 9.9 C 8.78 g/m*3 9.9 C 0 km/h
364 16-07-2019 06:15:00 9.9 C 8.78 g/m*3 9.9 C 0 km/h
365 16-07-2019 06:20:00 9.9 C 8.78 g/m*3 9.9 C 0 km/h
366 16-07-2019 06:25:00 10 C 8.83 g/m*3 10 C 0 km/h
367 16-07-2019 06:30:00 10.1 C 8.89 g/m*3 10.1 C 0 km/h
368 16-07-2019 06:35:00 10.1 C 8.98 g/m*3 10.1 C 0 km/h
369 16-07-2019 06:40:00 10.3 C 9.1 g/m*3 10.3 C 4.8 km/h
370 16-07-2019 06:45:00 10.4 C 9.16 g/m*3 10.4 C 4.8 km/h
371 16-07-2019 06:50:00 10.5 C 9.21 g/m*3 10.5 C 3.2 km/h
372 16-07-2019 06:55:00 10.6 C 9.27 g/m*3 10.6 C 3.2 km/h
373 16-07-2019 07:00:00 10.6 C 9.17 g/m*3 10.06 C 6.4 km/h
374 16-07-2019 07:05:00 10.7 C 9.23 g/m*3 10.7 C 4.8 km/h
375 16-07-2019 07:10:00 10.7 C 9.23 g/m*3 10.18 C 6.4 km/h
Sensor: Nr:Datum:Temp:Abs-Feuchte:Windchill:Wind:
Aussen-T/F 376 16-07-2019 07:15:00 10.8 C 9.29 g/m*3 10.8 C 3.2 km/h
377 16-07-2019 07:20:00 10.8 C 9.29 g/m*3 10.8 C 4.8 km/h
378 16-07-2019 07:25:00 10.9 C 9.35 g/m*3 10.9 C 4.8 km/h
379 16-07-2019 07:30:00 11 C 9.41 g/m*3 11 C 4.8 km/h
380 16-07-2019 07:35:00 11.2 C 9.53 g/m*3 11.2 C 4.8 km/h
381 16-07-2019 07:40:00 11.2 C 9.53 g/m*3 11.2 C 3.2 km/h
382 16-07-2019 07:45:00 11.3 C 9.49 g/m*3 11.3 C 3.2 km/h
383 16-07-2019 07:50:00 11.4 C 9.55 g/m*3 11.4 C 3.2 km/h
384 16-07-2019 07:55:00 11.6 C 9.67 g/m*3 11.6 C 3.2 km/h
385 16-07-2019 08:00:00 11.7 C 9.73 g/m*3 11.7 C 3.2 km/h
386 16-07-2019 08:05:00 11.8 C 9.79 g/m*3 11.8 C 3.2 km/h
387 16-07-2019 08:10:00 11.9 C 9.74 g/m*3 11.9 C 3.2 km/h
388 16-07-2019 08:15:00 12.1 C 9.87 g/m*3 12.1 C 3.2 km/h
389 16-07-2019 08:20:00 12.3 C 9.99 g/m*3 12.3 C 3.2 km/h
390 16-07-2019 08:25:00 12.4 C 9.94 g/m*3 12.4 C 1.6 km/h
391 16-07-2019 08:30:00 12.7 C 10.13 g/m*3 12.7 C 1.6 km/h
392 16-07-2019 08:35:00 12.8 C 10.08 g/m*3 12.8 C 1.6 km/h
393 16-07-2019 08:40:00 13.1 C 10.27 g/m*3 13.1 C 1.6 km/h
394 16-07-2019 08:45:00 13.3 C 10.28 g/m*3 13.3 C 1.6 km/h
395 16-07-2019 08:50:00 13.6 C 10.36 g/m*3 13.6 C 3.2 km/h
396 16-07-2019 08:55:00 13.8 C 10.48 g/m*3 13.8 C 1.6 km/h
397 16-07-2019 09:00:00 13.9 C 10.43 g/m*3 13.9 C 1.6 km/h
398 16-07-2019 09:05:00 14 C 10.37 g/m*3 14 C 1.6 km/h
399 16-07-2019 09:10:00 14.2 C 10.5 g/m*3 14.2 C 1.6 km/h
400 16-07-2019 09:15:00 14.3 C 10.57 g/m*3 14.3 C 0 km/h
Sensor: Nr:Datum:Temp:Abs-Feuchte:Windchill:Wind:
Aussen-T/F 401 16-07-2019 09:20:00 14.5 C 10.7 g/m*3 14.5 C 1.6 km/h
402 16-07-2019 09:25:00 14.7 C 10.58 g/m*3 14.7 C 1.6 km/h
403 16-07-2019 09:30:00 14.8 C 10.64 g/m*3 14.8 C 4.8 km/h
404 16-07-2019 09:35:00 14.8 C 10.51 g/m*3 14.8 C 11.3 km/h
405 16-07-2019 09:40:00 14.9 C 10.58 g/m*3 14.9 C 6.4 km/h
406 16-07-2019 09:45:00 14.9 C 10.58 g/m*3 14.9 C 4.8 km/h
407 16-07-2019 09:50:00 15 C 10.39 g/m*3 15 C 4.8 km/h
408 16-07-2019 09:55:00 15 C 10.39 g/m*3 15 C 9.7 km/h
409 16-07-2019 10:00:00 15.1 C 10.32 g/m*3 15.1 C 6.4 km/h
410 16-07-2019 10:05:00 15.3 C 10.45 g/m*3 15.3 C 6.4 km/h
411 16-07-2019 10:10:00 15.4 C 10.25 g/m*3 15.4 C 8.1 km/h
412 16-07-2019 10:15:00 15.4 C 10.25 g/m*3 15.4 C 9.7 km/h
413 16-07-2019 10:20:00 15.4 C 10.25 g/m*3 15.4 C 8.1 km/h
414 16-07-2019 10:25:00 15.5 C 10.18 g/m*3 15.5 C 8.1 km/h
415 16-07-2019 10:30:00 15.5 C 10.05 g/m*3 15.5 C 4.8 km/h
416 16-07-2019 10:35:00 15.6 C 10.24 g/m*3 15.6 C 4.8 km/h
417 16-07-2019 10:40:00 15.7 C 10.3 g/m*3 15.7 C 6.4 km/h
418 16-07-2019 10:45:00 15.7 C 10.3 g/m*3 15.7 C 4.8 km/h
419 16-07-2019 10:50:00 15.8 C 10.23 g/m*3 15.8 C 6.4 km/h
420 16-07-2019 10:55:00 15.8 C 10.23 g/m*3 15.8 C 8.1 km/h
421 16-07-2019 11:00:00 15.9 C 10.16 g/m*3 15.9 C 11.3 km/h
422 16-07-2019 11:05:00 15.9 C 10.16 g/m*3 15.9 C 11.3 km/h
423 16-07-2019 11:10:00 16 C 10.22 g/m*3 16 C 11.3 km/h
424 16-07-2019 11:15:00 16 C 10.22 g/m*3 16 C 8.1 km/h
425 16-07-2019 11:20:00 16.1 C 10.28 g/m*3 16.1 C 6.4 km/h
Sensor: Nr:Datum:Temp:Abs-Feuchte:Windchill:Wind:
Aussen-T/F 426 16-07-2019 11:25:00 16.1 C 10.28 g/m*3 16.1 C 12.9 km/h
427 16-07-2019 11:30:00 15.9 C 10.16 g/m*3 15.9 C 12.9 km/h
428 16-07-2019 11:35:00 15.8 C 10.1 g/m*3 15.8 C 6.4 km/h
429 16-07-2019 11:40:00 15.9 C 10.16 g/m*3 15.9 C 6.4 km/h
430 16-07-2019 11:45:00 16 C 10.08 g/m*3 16 C 8.1 km/h
431 16-07-2019 11:50:00 16.1 C 10.01 g/m*3 16.1 C 6.4 km/h
432 16-07-2019 11:55:00 16.2 C 10.2 g/m*3 16.2 C 14.5 km/h
433 16-07-2019 12:00:00 16.3 C 10.13 g/m*3 16.3 C 14.5 km/h
434 16-07-2019 12:05:00 16.3 C 10.13 g/m*3 16.3 C 9.7 km/h
435 16-07-2019 12:10:00 16.4 C 10.19 g/m*3 16.4 C 9.7 km/h
436 16-07-2019 12:15:00 16.5 C 10.25 g/m*3 16.5 C 8.1 km/h
437 16-07-2019 12:20:00 16.6 C 10.31 g/m*3 16.6 C 8.1 km/h
438 16-07-2019 12:25:00 16.7 C 10.23 g/m*3 16.7 C 11.3 km/h
439 16-07-2019 12:30:00 16.8 C 10.15 g/m*3 16.8 C 9.7 km/h
440 16-07-2019 12:35:00 16.9 C 10.21 g/m*3 16.9 C 6.4 km/h
441 16-07-2019 12:40:00 17 C 10.27 g/m*3 17 C 11.3 km/h
442 16-07-2019 12:45:00 17 C 10.27 g/m*3 17 C 14.5 km/h
443 16-07-2019 12:50:00 17.1 C 10.34 g/m*3 17.1 C 9.7 km/h
444 16-07-2019 12:55:00 17.1 C 10.19 g/m*3 17.1 C 12.9 km/h
445 16-07-2019 13:00:00 17.2 C 10.25 g/m*3 17.2 C 6.4 km/h
446 16-07-2019 13:05:00 17.2 C 10.4 g/m*3 17.2 C 9.7 km/h
447 16-07-2019 13:10:00 17.3 C 10.31 g/m*3 17.3 C 11.3 km/h
448 16-07-2019 13:15:00 17.3 C 10.31 g/m*3 17.3 C 11.3 km/h
449 16-07-2019 13:20:00 17.3 C 10.16 g/m*3 17.3 C 8.1 km/h
450 16-07-2019 13:25:00 17.2 C 10.25 g/m*3 17.2 C 9.7 km/h
Sensor: Nr:Datum:Temp:Abs-Feuchte:Windchill:Wind:
Aussen-T/F 451 16-07-2019 13:30:00 17.3 C 10.46 g/m*3 17.3 C 6.4 km/h
452 16-07-2019 13:35:00 17.7 C 10.56 g/m*3 17.7 C 12.9 km/h
453 16-07-2019 13:40:00 17.7 C 10.26 g/m*3 17.7 C 9.7 km/h
454 16-07-2019 13:45:00 17.6 C 10.05 g/m*3 17.6 C 9.7 km/h
455 16-07-2019 13:50:00 17.5 C 10.29 g/m*3 17.5 C 4.8 km/h
456 16-07-2019 13:55:00 17.6 C 10.2 g/m*3 17.6 C 1.6 km/h
457 16-07-2019 14:00:00 17.6 C 10.5 g/m*3 17.6 C 8.1 km/h
458 16-07-2019 14:05:00 17.7 C 10.26 g/m*3 17.7 C 11.3 km/h
459 16-07-2019 14:10:00 17.9 C 10.38 g/m*3 17.9 C 9.7 km/h
460 16-07-2019 14:15:00 18 C 10.44 g/m*3 18 C 6.4 km/h
461 16-07-2019 14:20:00 18.2 C 10.41 g/m*3 18.2 C 8.1 km/h
462 16-07-2019 14:25:00 18.3 C 10.32 g/m*3 18.3 C 17.7 km/h
463 16-07-2019 14:30:00 18.4 C 10.22 g/m*3 18.4 C 16.1 km/h
464 16-07-2019 14:35:00 18.6 C 10.35 g/m*3 18.6 C 8.1 km/h
465 16-07-2019 14:40:00 18.8 C 10.63 g/m*3 18.8 C 8.1 km/h
466 16-07-2019 14:45:00 18.9 C 10.53 g/m*3 18.9 C 9.7 km/h
467 16-07-2019 14:50:00 19 C 10.59 g/m*3 19 C 3.2 km/h
468 16-07-2019 14:55:00 19.2 C 10.72 g/m*3 19.2 C 12.9 km/h
469 16-07-2019 15:00:00 19.3 C 10.62 g/m*3 19.3 C 14.5 km/h
470 16-07-2019 15:05:00 19.4 C 10.68 g/m*3 19.4 C 8.1 km/h
471 16-07-2019 15:10:00 19.6 C 10.64 g/m*3 19.6 C 12.9 km/h
472 16-07-2019 15:15:00 19.6 C 10.47 g/m*3 19.6 C 6.4 km/h
473 16-07-2019 15:20:00 19.7 C 10.53 g/m*3 19.7 C 4.8 km/h
474 16-07-2019 15:25:00 20 C 10.54 g/m*3 20 C 4.8 km/h
475 16-07-2019 15:30:00 20.4 C 10.97 g/m*3 20.4 C 9.7 km/h
Sensor: Nr:Datum:Temp:Abs-Feuchte:Windchill:Wind:
Aussen-T/F 476 16-07-2019 15:35:00 20.8 C 10.86 g/m*3 20.8 C 8.1 km/h
477 16-07-2019 15:40:00 21.2 C 11.12 g/m*3 21.2 C 11.3 km/h
478 16-07-2019 15:45:00 21.3 C 10.62 g/m*3 21.3 C 4.8 km/h
479 16-07-2019 15:50:00 21.2 C 10.93 g/m*3 21.2 C 3.2 km/h
480 16-07-2019 15:55:00 21.4 C 10.69 g/m*3 21.4 C 4.8 km/h
481 16-07-2019 16:00:00 21.7 C 11.06 g/m*3 21.7 C 6.4 km/h
482 16-07-2019 16:05:00 22.1 C 11.32 g/m*3 22.1 C 9.7 km/h
483 16-07-2019 16:10:00 22.2 C 10.8 g/m*3 22.2 C 11.3 km/h
484 16-07-2019 16:15:00 22.3 C 10.86 g/m*3 22.3 C 8.1 km/h
485 16-07-2019 16:20:00 22.5 C 10.99 g/m*3 22.5 C 4.8 km/h
486 16-07-2019 16:25:00 22.7 C 10.91 g/m*3 22.7 C 6.4 km/h
487 16-07-2019 16:30:00 22.7 C 10.71 g/m*3 22.7 C 8.1 km/h
488 16-07-2019 16:35:00 22.6 C 10.45 g/m*3 22.6 C 11.3 km/h
489 16-07-2019 16:40:00 22.3 C 10.66 g/m*3 22.3 C 6.4 km/h
490 16-07-2019 16:45:00 22.1 C 10.74 g/m*3 22.1 C 9.7 km/h
491 16-07-2019 16:50:00 22.2 C 10.8 g/m*3 22.2 C 11.3 km/h
492 16-07-2019 16:55:00 22.4 C 10.72 g/m*3 22.4 C 6.4 km/h
493 16-07-2019 17:00:00 22.5 C 10.79 g/m*3 22.5 C 9.7 km/h
494 16-07-2019 17:05:00 22.7 C 10.71 g/m*3 22.7 C 8.1 km/h
495 16-07-2019 17:10:00 22.8 C 10.57 g/m*3 22.8 C 9.7 km/h
496 16-07-2019 17:15:00 22.7 C 10.71 g/m*3 22.7 C 8.1 km/h
497 16-07-2019 17:20:00 22.6 C 10.65 g/m*3 22.6 C 9.7 km/h
498 16-07-2019 17:25:00 22.7 C 10.91 g/m*3 22.7 C 14.5 km/h
499 16-07-2019 17:30:00 22.9 C 11.04 g/m*3 22.9 C 9.7 km/h
500 16-07-2019 17:35:00 23 C 10.89 g/m*3 23 C 6.4 km/h
Sensor: Nr:Datum:Temp:Abs-Feuchte:Windchill:Wind:
Aussen-T/F 501 16-07-2019 17:40:00 23 C 10.89 g/m*3 23 C 8.1 km/h
502 16-07-2019 17:45:00 22.9 C 10.83 g/m*3 22.9 C 8.1 km/h
503 16-07-2019 17:50:00 22.9 C 10.63 g/m*3 22.9 C 8.1 km/h
504 16-07-2019 17:55:00 22.9 C 10.83 g/m*3 22.9 C 14.5 km/h
505 16-07-2019 18:00:00 22.8 C 10.77 g/m*3 22.8 C 11.3 km/h
506 16-07-2019 18:05:00 22.8 C 10.77 g/m*3 22.8 C 6.4 km/h
507 16-07-2019 18:10:00 22.8 C 10.57 g/m*3 22.8 C 9.7 km/h
508 16-07-2019 18:15:00 22.9 C 10.83 g/m*3 22.9 C 11.3 km/h
509 16-07-2019 18:20:00 23.2 C 10.81 g/m*3 23.2 C 4.8 km/h
510 16-07-2019 18:25:00 23.3 C 10.66 g/m*3 23.3 C 8.1 km/h
511 16-07-2019 18:30:00 23.4 C 10.51 g/m*3 23.4 C 4.8 km/h
512 16-07-2019 18:35:00 23.3 C 10.66 g/m*3 23.3 C 11.3 km/h
513 16-07-2019 18:40:00 23.2 C 10.81 g/m*3 23.2 C 9.7 km/h
514 16-07-2019 18:45:00 23.2 C 10.81 g/m*3 23.2 C 4.8 km/h
515 16-07-2019 18:50:00 23.1 C 10.75 g/m*3 23.1 C 6.4 km/h
516 16-07-2019 18:55:00 22.9 C 10.83 g/m*3 22.9 C 8.1 km/h
517 16-07-2019 19:00:00 23 C 10.69 g/m*3 23 C 9.7 km/h
518 16-07-2019 19:05:00 23 C 10.89 g/m*3 23 C 9.7 km/h
519 16-07-2019 19:10:00 22.9 C 10.63 g/m*3 22.9 C 9.7 km/h
520 16-07-2019 19:15:00 22.8 C 10.57 g/m*3 22.8 C 8.1 km/h
521 16-07-2019 19:20:00 22.4 C 10.53 g/m*3 22.4 C 8.1 km/h
522 16-07-2019 19:25:00 22.1 C 10.54 g/m*3 22.1 C 8.1 km/h
523 16-07-2019 19:30:00 21.9 C 10.61 g/m*3 21.9 C 8.1 km/h
524 16-07-2019 19:35:00 21.7 C 10.49 g/m*3 21.7 C 11.3 km/h
525 16-07-2019 19:40:00 21.5 C 10.37 g/m*3 21.5 C 8.1 km/h
Sensor: Nr:Datum:Temp:Abs-Feuchte:Windchill:Wind:
Aussen-T/F 526 16-07-2019 19:45:00 21.4 C 10.5 g/m*3 21.4 C 11.3 km/h
527 16-07-2019 19:50:00 21.4 C 10.5 g/m*3 21.4 C 6.4 km/h
528 16-07-2019 19:55:00 21.4 C 10.69 g/m*3 21.4 C 8.1 km/h
529 16-07-2019 20:00:00 21.4 C 10.5 g/m*3 21.4 C 9.7 km/h
530 16-07-2019 20:05:00 21.4 C 10.69 g/m*3 21.4 C 8.1 km/h
531 16-07-2019 20:10:00 21.3 C 10.44 g/m*3 21.3 C 8.1 km/h
532 16-07-2019 20:15:00 21.3 C 10.62 g/m*3 21.3 C 8.1 km/h
533 16-07-2019 20:20:00 21.1 C 10.5 g/m*3 21.1 C 6.4 km/h
534 16-07-2019 20:25:00 21 C 10.62 g/m*3 21 C 6.4 km/h
535 16-07-2019 20:30:00 20.8 C 10.5 g/m*3 20.8 C 8.1 km/h
536 16-07-2019 20:35:00 20.6 C 10.56 g/m*3 20.6 C 8.1 km/h
537 16-07-2019 20:40:00 20.4 C 10.44 g/m*3 20.4 C 4.8 km/h
538 16-07-2019 20:45:00 20.3 C 10.55 g/m*3 20.3 C 4.8 km/h
539 16-07-2019 20:50:00 20.2 C 10.67 g/m*3 20.2 C 1.6 km/h
540 16-07-2019 20:55:00 20 C 10.71 g/m*3 20 C 3.2 km/h
541 16-07-2019 21:00:00 19.9 C 11 g/m*3 19.9 C 3.2 km/h
542 16-07-2019 21:05:00 19.7 C 11.04 g/m*3 19.7 C 3.2 km/h
543 16-07-2019 21:10:00 19.6 C 11.14 g/m*3 19.6 C 0 km/h
544 16-07-2019 21:15:00 19.2 C 11.05 g/m*3 19.2 C 0 km/h
545 16-07-2019 21:20:00 18.8 C 11.11 g/m*3 18.8 C 0 km/h
546 16-07-2019 21:25:00 18.4 C 11.01 g/m*3 18.4 C 0 km/h
547 16-07-2019 21:30:00 18.1 C 10.97 g/m*3 18.1 C 0 km/h
548 16-07-2019 21:35:00 17.8 C 10.93 g/m*3 17.8 C 0 km/h
549 16-07-2019 21:40:00 17.4 C 10.82 g/m*3 17.4 C 0 km/h
550 16-07-2019 21:45:00 17.2 C 10.84 g/m*3 17.2 C 0 km/h
Sensor: Nr:Datum:Temp:Abs-Feuchte:Windchill:Wind:
Aussen-T/F 551 16-07-2019 21:50:00 16.9 C 10.79 g/m*3 16.9 C 0 km/h
552 16-07-2019 21:55:00 16.7 C 10.8 g/m*3 16.7 C 0 km/h
553 16-07-2019 22:00:00 16.5 C 10.67 g/m*3 16.5 C 0 km/h
554 16-07-2019 22:05:00 16.3 C 10.68 g/m*3 16.3 C 0 km/h
555 16-07-2019 22:10:00 16.2 C 10.76 g/m*3 16.2 C 0 km/h
556 16-07-2019 22:15:00 16.1 C 10.69 g/m*3 16.1 C 0 km/h
557 16-07-2019 22:20:00 15.9 C 10.56 g/m*3 15.9 C 0 km/h
558 16-07-2019 22:25:00 15.8 C 10.63 g/m*3 15.8 C 0 km/h
559 16-07-2019 22:30:00 15.7 C 10.57 g/m*3 15.7 C 0 km/h
560 16-07-2019 22:35:00 15.7 C 10.7 g/m*3 15.7 C 0 km/h
561 16-07-2019 22:40:00 15.6 C 10.64 g/m*3 15.6 C 0 km/h
562 16-07-2019 22:45:00 15.6 C 10.64 g/m*3 15.6 C 0 km/h
563 16-07-2019 22:50:00 15.4 C 10.64 g/m*3 15.4 C 0 km/h
564 16-07-2019 22:55:00 15.4 C 10.51 g/m*3 15.4 C 0 km/h
565 16-07-2019 23:00:00 15.4 C 10.64 g/m*3 15.4 C 0 km/h
566 16-07-2019 23:05:00 15.4 C 10.64 g/m*3 15.4 C 0 km/h
567 16-07-2019 23:10:00 15.3 C 10.58 g/m*3 15.3 C 0 km/h
568 16-07-2019 23:15:00 15.3 C 10.58 g/m*3 15.3 C 0 km/h
569 16-07-2019 23:20:00 15.2 C 10.51 g/m*3 15.2 C 0 km/h
570 16-07-2019 23:25:00 15.1 C 10.45 g/m*3 15.1 C 0 km/h
571 16-07-2019 23:30:00 15.1 C 10.58 g/m*3 15.1 C 0 km/h
572 16-07-2019 23:35:00 15 C 10.51 g/m*3 15 C 0 km/h
573 16-07-2019 23:40:00 14.9 C 10.45 g/m*3 14.9 C 0 km/h
574 16-07-2019 23:45:00 14.8 C 10.51 g/m*3 14.8 C 0 km/h
575 16-07-2019 23:50:00 14.8 C 10.51 g/m*3 14.8 C 0 km/h
Sensor: Nr:Datum:Temp:Abs-Feuchte:Windchill:Wind:
Aussen-T/F 576 16-07-2019 23:55:00 14.7 C 10.45 g/m*3 14.7 C 0 km/h
577 17-07-2019 00:00:00 14.7 C 10.45 g/m*3 14.7 C 0 km/h
578 17-07-2019 00:05:00 14.6 C 10.39 g/m*3 14.6 C 0 km/h
579 17-07-2019 00:10:00 14.4 C 10.26 g/m*3 14.4 C 0 km/h
580 17-07-2019 00:15:00 14.3 C 10.2 g/m*3 14.3 C 0 km/h
581 17-07-2019 00:20:00 14.3 C 10.32 g/m*3 14.3 C 0 km/h
582 17-07-2019 00:25:00 14.1 C 10.19 g/m*3 14.1 C 0 km/h
583 17-07-2019 00:30:00 14 C 10.13 g/m*3 14 C 0 km/h
584 17-07-2019 00:35:00 13.9 C 10.19 g/m*3 13.9 C 0 km/h
585 17-07-2019 00:40:00 13.8 C 10.13 g/m*3 13.8 C 0 km/h
586 17-07-2019 00:45:00 13.7 C 10.18 g/m*3 13.7 C 0 km/h
587 17-07-2019 00:50:00 13.7 C 10.18 g/m*3 13.7 C 0 km/h
588 17-07-2019 00:55:00 13.6 C 10.12 g/m*3 13.6 C 0 km/h
589 17-07-2019 01:00:00 13.4 C 10.11 g/m*3 13.4 C 0 km/h
590 17-07-2019 01:05:00 13.3 C 10.05 g/m*3 13.3 C 0 km/h
591 17-07-2019 01:10:00 13.2 C 9.99 g/m*3 13.2 C 0 km/h
592 17-07-2019 01:15:00 13.2 C 10.1 g/m*3 13.2 C 0 km/h
593 17-07-2019 01:20:00 13.1 C 10.04 g/m*3 13.1 C 0 km/h
594 17-07-2019 01:25:00 13.1 C 10.04 g/m*3 13.1 C 0 km/h
595 17-07-2019 01:30:00 13.1 C 10.16 g/m*3 13.1 C 0 km/h
596 17-07-2019 01:35:00 13 C 10.09 g/m*3 13 C 0 km/h
597 17-07-2019 01:40:00 13 C 10.09 g/m*3 13 C 0 km/h
598 17-07-2019 01:45:00 12.9 C 10.03 g/m*3 12.9 C 0 km/h
599 17-07-2019 01:50:00 12.9 C 10.03 g/m*3 12.9 C 0 km/h
600 17-07-2019 01:55:00 12.8 C 9.97 g/m*3 12.8 C 0 km/h
Sensor: Nr:Datum:Temp:Abs-Feuchte:Windchill:Wind:
Aussen-T/F 601 17-07-2019 02:00:00 12.8 C 9.97 g/m*3 12.8 C 0 km/h
602 17-07-2019 02:05:00 12.7 C 9.91 g/m*3 12.7 C 0 km/h
603 17-07-2019 02:10:00 12.7 C 9.91 g/m*3 12.7 C 0 km/h
604 17-07-2019 02:15:00 12.6 C 9.85 g/m*3 12.6 C 0 km/h
605 17-07-2019 02:20:00 12.5 C 9.89 g/m*3 12.5 C 0 km/h
606 17-07-2019 02:25:00 12.4 C 9.83 g/m*3 12.4 C 0 km/h
607 17-07-2019 02:30:00 12.3 C 9.77 g/m*3 12.3 C 0 km/h
608 17-07-2019 02:35:00 12.3 C 9.77 g/m*3 12.3 C 0 km/h
609 17-07-2019 02:40:00 12.3 C 9.77 g/m*3 12.3 C 0 km/h
610 17-07-2019 02:45:00 12.2 C 9.71 g/m*3 12.2 C 0 km/h
611 17-07-2019 02:50:00 12.1 C 9.76 g/m*3 12.1 C 0 km/h
612 17-07-2019 02:55:00 12 C 9.59 g/m*3 12 C 0 km/h
613 17-07-2019 03:00:00 11.9 C 9.64 g/m*3 11.9 C 0 km/h
614 17-07-2019 03:05:00 11.8 C 9.58 g/m*3 11.8 C 0 km/h
615 17-07-2019 03:10:00 11.8 C 9.58 g/m*3 11.8 C 0 km/h
616 17-07-2019 03:15:00 11.7 C 9.52 g/m*3 11.7 C 0 km/h
617 17-07-2019 03:20:00 11.6 C 9.46 g/m*3 11.6 C 0 km/h
618 17-07-2019 03:25:00 11.6 C 9.56 g/m*3 11.6 C 0 km/h
619 17-07-2019 03:30:00 11.6 C 9.56 g/m*3 11.6 C 0 km/h
620 17-07-2019 03:35:00 11.6 C 9.56 g/m*3 11.6 C 0 km/h
621 17-07-2019 03:40:00 11.6 C 9.56 g/m*3 11.6 C 0 km/h
622 17-07-2019 03:45:00 11.5 C 9.5 g/m*3 11.5 C 0 km/h
623 17-07-2019 03:50:00 11.5 C 9.5 g/m*3 11.5 C 0 km/h
624 17-07-2019 03:55:00 11.5 C 9.5 g/m*3 11.5 C 0 km/h
625 17-07-2019 04:00:00 11.4 C 9.44 g/m*3 11.4 C 0 km/h
Sensor: Nr:Datum:Temp:Abs-Feuchte:Windchill:Wind:
Aussen-T/F 626 17-07-2019 04:05:00 11.4 C 9.55 g/m*3 11.4 C 0 km/h
627 17-07-2019 04:10:00 11.4 C 9.55 g/m*3 11.4 C 1.6 km/h
628 17-07-2019 04:15:00 11.3 C 9.49 g/m*3 11.3 C 1.6 km/h
629 17-07-2019 04:20:00 11.2 C 9.33 g/m*3 11.2 C 0 km/h
630 17-07-2019 04:25:00 11.2 C 9.43 g/m*3 11.2 C 0 km/h
631 17-07-2019 04:30:00 11.2 C 9.43 g/m*3 11.2 C 0 km/h
632 17-07-2019 04:35:00 11.2 C 9.43 g/m*3 11.2 C 0 km/h
633 17-07-2019 04:40:00 11.2 C 9.43 g/m*3 11.2 C 0 km/h
634 17-07-2019 04:45:00 11.1 C 9.37 g/m*3 11.1 C 0 km/h
635 17-07-2019 04:50:00 11.1 C 9.37 g/m*3 11.1 C 0 km/h
636 17-07-2019 04:55:00 11 C 9.31 g/m*3 11 C 0 km/h
637 17-07-2019 05:00:00 10.9 C 9.25 g/m*3 10.9 C 0 km/h
638 17-07-2019 05:05:00 10.9 C 9.25 g/m*3 10.9 C 0 km/h
639 17-07-2019 05:10:00 10.9 C 9.25 g/m*3 10.9 C 0 km/h
640 17-07-2019 05:15:00 10.9 C 9.35 g/m*3 10.9 C 0 km/h
641 17-07-2019 05:20:00 10.9 C 9.35 g/m*3 10.9 C 0 km/h
642 17-07-2019 05:25:00 10.9 C 9.35 g/m*3 10.9 C 0 km/h
643 17-07-2019 05:30:00 10.9 C 9.35 g/m*3 10.9 C 0 km/h
644 17-07-2019 05:35:00 10.8 C 9.29 g/m*3 10.8 C 0 km/h
645 17-07-2019 05:40:00 10.8 C 9.29 g/m*3 10.8 C 0 km/h
646 17-07-2019 05:45:00 10.7 C 9.23 g/m*3 10.7 C 0 km/h
647 17-07-2019 05:50:00 10.7 C 9.23 g/m*3 10.7 C 0 km/h
648 17-07-2019 05:55:00 10.7 C 9.23 g/m*3 10.7 C 0 km/h
649 17-07-2019 06:00:00 10.7 C 9.23 g/m*3 10.7 C 0 km/h
650 17-07-2019 06:05:00 10.7 C 9.23 g/m*3 10.7 C 0 km/h
Sensor: Nr:Datum:Temp:Abs-Feuchte:Windchill:Wind:
Aussen-T/F 651 17-07-2019 06:10:00 10.6 C 9.17 g/m*3 10.6 C 0 km/h
652 17-07-2019 06:15:00 10.6 C 9.17 g/m*3 10.6 C 0 km/h
653 17-07-2019 06:20:00 10.6 C 9.17 g/m*3 10.6 C 0 km/h
654 17-07-2019 06:25:00 10.7 C 9.23 g/m*3 10.7 C 0 km/h
655 17-07-2019 06:30:00 10.7 C 9.33 g/m*3 10.7 C 0 km/h
656 17-07-2019 06:35:00 10.7 C 9.33 g/m*3 10.7 C 0 km/h
657 17-07-2019 06:40:00 10.8 C 9.39 g/m*3 10.8 C 0 km/h
658 17-07-2019 06:45:00 10.9 C 9.45 g/m*3 10.9 C 0 km/h
659 17-07-2019 06:50:00 10.9 C 9.45 g/m*3 10.9 C 0 km/h
660 17-07-2019 06:55:00 11 C 9.51 g/m*3 11 C 0 km/h
661 17-07-2019 07:00:00 11.1 C 9.57 g/m*3 11.1 C 0 km/h
662 17-07-2019 07:05:00 11.1 C 9.57 g/m*3 11.1 C 0 km/h
663 17-07-2019 07:10:00 11.2 C 9.63 g/m*3 11.2 C 0 km/h
664 17-07-2019 07:15:00 11.2 C 9.63 g/m*3 11.2 C 0 km/h
665 17-07-2019 07:20:00 11.3 C 9.69 g/m*3 11.3 C 0 km/h
666 17-07-2019 07:25:00 11.4 C 9.75 g/m*3 11.4 C 0 km/h
667 17-07-2019 07:30:00 11.6 C 9.87 g/m*3 11.6 C 0 km/h
668 17-07-2019 07:35:00 11.7 C 9.94 g/m*3 11.7 C 0 km/h
669 17-07-2019 07:40:00 11.8 C 10 g/m*3 11.8 C 0 km/h
670 17-07-2019 07:45:00 11.8 C 10.1 g/m*3 11.8 C 0 km/h
671 17-07-2019 07:50:00 11.9 C 10.06 g/m*3 11.9 C 0 km/h
672 17-07-2019 07:55:00 12.1 C 10.19 g/m*3 12.1 C 0 km/h
673 17-07-2019 08:00:00 12.2 C 10.36 g/m*3 12.2 C 0 km/h
674 17-07-2019 08:05:00 12.3 C 10.32 g/m*3 12.3 C 0 km/h
675 17-07-2019 08:10:00 12.4 C 10.38 g/m*3 12.4 C 0 km/h
Sensor: Nr:Datum:Temp:Abs-Feuchte:Windchill:Wind:
Aussen-T/F 676 17-07-2019 08:15:00 12.6 C 10.51 g/m*3 12.6 C 0 km/h
677 17-07-2019 08:20:00 12.6 C 10.51 g/m*3 12.6 C 0 km/h
678 17-07-2019 08:25:00 12.7 C 10.58 g/m*3 12.7 C 0 km/h
679 17-07-2019 08:30:00 12.8 C 10.64 g/m*3 12.8 C 0 km/h
680 17-07-2019 08:35:00 12.9 C 10.59 g/m*3 12.9 C 0 km/h
681 17-07-2019 08:40:00 13.1 C 10.73 g/m*3 13.1 C 0 km/h
682 17-07-2019 08:45:00 13.2 C 10.79 g/m*3 13.2 C 0 km/h
683 17-07-2019 08:50:00 13.3 C 10.74 g/m*3 13.3 C 0 km/h
684 17-07-2019 08:55:00 13.4 C 10.81 g/m*3 13.4 C 0 km/h
685 17-07-2019 09:00:00 13.7 C 11.01 g/m*3 13.7 C 0 km/h
686 17-07-2019 09:05:00 13.8 C 10.96 g/m*3 13.8 C 0 km/h
687 17-07-2019 09:10:00 14.1 C 11.17 g/m*3 14.1 C 1.6 km/h
688 17-07-2019 09:15:00 14.3 C 11.06 g/m*3 14.3 C 3.2 km/h
689 17-07-2019 09:20:00 14.5 C 11.19 g/m*3 14.5 C 1.6 km/h
690 17-07-2019 09:25:00 14.7 C 11.21 g/m*3 14.7 C 1.6 km/h
691 17-07-2019 09:30:00 15 C 11.28 g/m*3 15 C 0 km/h
692 17-07-2019 09:35:00 15.3 C 11.36 g/m*3 15.3 C 4.8 km/h
693 17-07-2019 09:40:00 15.5 C 11.5 g/m*3 15.5 C 4.8 km/h
694 17-07-2019 09:45:00 15.7 C 11.51 g/m*3 15.7 C 0 km/h
695 17-07-2019 09:50:00 15.8 C 11.44 g/m*3 15.8 C 1.6 km/h
696 17-07-2019 09:55:00 15.9 C 11.38 g/m*3 15.9 C 3.2 km/h
697 17-07-2019 10:00:00 16.1 C 11.38 g/m*3 16.1 C 4.8 km/h
698 17-07-2019 10:05:00 16.3 C 11.38 g/m*3 16.3 C 1.6 km/h
699 17-07-2019 10:10:00 16.4 C 11.31 g/m*3 16.4 C 0 km/h
700 17-07-2019 10:15:00 16.6 C 11.44 g/m*3 16.6 C 0 km/h
Sensor: Nr:Datum:Temp:Abs-Feuchte:Windchill:Wind:
Aussen-T/F 701 17-07-2019 10:20:00 16.8 C 11.44 g/m*3 16.8 C 6.4 km/h
702 17-07-2019 10:25:00 17.2 C 11.28 g/m*3 17.2 C 6.4 km/h
703 17-07-2019 10:30:00 17.5 C 11.33 g/m*3 17.5 C 6.4 km/h
704 17-07-2019 10:35:00 17.8 C 11.38 g/m*3 17.8 C 4.8 km/h
705 17-07-2019 10:40:00 17.9 C 11.3 g/m*3 17.9 C 9.7 km/h
706 17-07-2019 10:45:00 18 C 11.21 g/m*3 18 C 9.7 km/h
707 17-07-2019 10:50:00 18.1 C 11.43 g/m*3 18.1 C 4.8 km/h
708 17-07-2019 10:55:00 18.1 C 11.28 g/m*3 18.1 C 9.7 km/h
709 17-07-2019 11:00:00 18.2 C 11.35 g/m*3 18.2 C 8.1 km/h
710 17-07-2019 11:05:00 18.1 C 11.28 g/m*3 18.1 C 9.7 km/h
711 17-07-2019 11:10:00 18.2 C 11.35 g/m*3 18.2 C 9.7 km/h
712 17-07-2019 11:15:00 18.3 C 11.26 g/m*3 18.3 C 9.7 km/h
713 17-07-2019 11:20:00 18.5 C 11.39 g/m*3 18.5 C 0 km/h
714 17-07-2019 11:25:00 18.6 C 11.3 g/m*3 18.6 C 8.1 km/h
715 17-07-2019 11:30:00 18.7 C 11.53 g/m*3 18.7 C 4.8 km/h
716 17-07-2019 11:35:00 18.7 C 11.37 g/m*3 18.7 C 4.8 km/h
717 17-07-2019 11:40:00 18.7 C 11.37 g/m*3 18.7 C 4.8 km/h
718 17-07-2019 11:45:00 18.8 C 11.43 g/m*3 18.8 C 4.8 km/h
719 17-07-2019 11:50:00 19 C 11.57 g/m*3 19 C 6.4 km/h
720 17-07-2019 11:55:00 19.2 C 11.54 g/m*3 19.2 C 8.1 km/h
721 17-07-2019 12:00:00 19.1 C 11.31 g/m*3 19.1 C 11.3 km/h
722 17-07-2019 12:05:00 19.1 C 11.47 g/m*3 19.1 C 4.8 km/h
723 17-07-2019 12:10:00 19.2 C 11.54 g/m*3 19.2 C 11.3 km/h
724 17-07-2019 12:15:00 19.2 C 11.54 g/m*3 19.2 C 8.1 km/h
725 17-07-2019 12:20:00 19.3 C 11.61 g/m*3 19.3 C 6.4 km/h
Sensor: Nr:Datum:Temp:Abs-Feuchte:Windchill:Wind:
Aussen-T/F 726 17-07-2019 12:25:00 19.3 C 11.61 g/m*3 19.3 C 4.8 km/h
727 17-07-2019 12:30:00 19.4 C 11.51 g/m*3 19.4 C 6.4 km/h
728 17-07-2019 12:35:00 19.4 C 11.35 g/m*3 19.4 C 8.1 km/h
729 17-07-2019 12:40:00 19.6 C 11.48 g/m*3 19.6 C 6.4 km/h
730 17-07-2019 12:45:00 19.6 C 11.31 g/m*3 19.6 C 6.4 km/h
731 17-07-2019 12:50:00 19.7 C 11.38 g/m*3 19.7 C 4.8 km/h
732 17-07-2019 12:55:00 19.8 C 11.44 g/m*3 19.8 C 9.7 km/h
733 17-07-2019 13:00:00 19.8 C 11.44 g/m*3 19.8 C 11.3 km/h
734 17-07-2019 13:05:00 19.8 C 11.27 g/m*3 19.8 C 3.2 km/h
735 17-07-2019 13:10:00 19.8 C 11.1 g/m*3 19.8 C 6.4 km/h
736 17-07-2019 13:15:00 20 C 11.23 g/m*3 20 C 9.7 km/h
737 17-07-2019 13:20:00 20.3 C 11.26 g/m*3 20.3 C 9.7 km/h
738 17-07-2019 13:25:00 20.6 C 11.45 g/m*3 20.6 C 9.7 km/h
739 17-07-2019 13:30:00 20.7 C 11.34 g/m*3 20.7 C 8.1 km/h
740 17-07-2019 13:35:00 20.9 C 11.11 g/m*3 20.9 C 11.3 km/h
741 17-07-2019 13:40:00 20.9 C 10.93 g/m*3 20.9 C 8.1 km/h
742 17-07-2019 13:45:00 20.9 C 10.93 g/m*3 20.9 C 9.7 km/h
743 17-07-2019 13:50:00 21.1 C 11.06 g/m*3 21.1 C 9.7 km/h
744 17-07-2019 13:55:00 21.2 C 11.12 g/m*3 21.2 C 9.7 km/h
745 17-07-2019 14:00:00 21.1 C 10.87 g/m*3 21.1 C 3.2 km/h
746 17-07-2019 14:05:00 21.1 C 11.06 g/m*3 21.1 C 3.2 km/h
747 17-07-2019 14:10:00 21.3 C 11.18 g/m*3 21.3 C 6.4 km/h
748 17-07-2019 14:15:00 21.5 C 10.75 g/m*3 21.5 C 8.1 km/h
749 17-07-2019 14:20:00 21.5 C 10.94 g/m*3 21.5 C 4.8 km/h
750 17-07-2019 14:25:00 21.7 C 11.45 g/m*3 21.7 C 14.5 km/h
Sensor: Nr:Datum:Temp:Abs-Feuchte:Windchill:Wind:
Aussen-T/F 751 17-07-2019 14:30:00 21.9 C 11.39 g/m*3 21.9 C 14.5 km/h
752 17-07-2019 14:35:00 21.9 C 11.58 g/m*3 21.9 C 9.7 km/h
753 17-07-2019 14:40:00 22.1 C 11.32 g/m*3 22.1 C 11.3 km/h
754 17-07-2019 14:45:00 22.1 C 11.32 g/m*3 22.1 C 9.7 km/h
755 17-07-2019 14:50:00 22 C 11.45 g/m*3 22 C 8.1 km/h
756 17-07-2019 14:55:00 22.1 C 11.52 g/m*3 22.1 C 16.1 km/h
757 17-07-2019 15:00:00 22.3 C 12.05 g/m*3 22.3 C 16.1 km/h
758 17-07-2019 15:05:00 22.3 C 11.45 g/m*3 22.3 C 16.1 km/h
759 17-07-2019 15:10:00 22.3 C 11.45 g/m*3 22.3 C 14.5 km/h
760 17-07-2019 15:15:00 22.3 C 11.85 g/m*3 22.3 C 9.7 km/h
761 17-07-2019 15:20:00 22.4 C 11.72 g/m*3 22.4 C 12.9 km/h
762 17-07-2019 15:25:00 22.7 C 11.72 g/m*3 22.7 C 11.3 km/h
763 17-07-2019 15:30:00 22.7 C 11.31 g/m*3 22.7 C 9.7 km/h
764 17-07-2019 15:35:00 22.8 C 11.79 g/m*3 22.8 C 9.7 km/h
765 17-07-2019 15:40:00 22.9 C 11.65 g/m*3 22.9 C 11.3 km/h
766 17-07-2019 15:45:00 23.1 C 11.78 g/m*3 23.1 C 14.5 km/h
767 17-07-2019 15:50:00 23.2 C 11.64 g/m*3 23.2 C 14.5 km/h
768 17-07-2019 15:55:00 23.3 C 12.13 g/m*3 23.3 C 11.3 km/h
769 17-07-2019 16:00:00 23.3 C 11.5 g/m*3 23.3 C 12.9 km/h
770 17-07-2019 16:05:00 23.3 C 11.92 g/m*3 23.3 C 12.9 km/h
771 17-07-2019 16:10:00 23.2 C 11.64 g/m*3 23.2 C 11.3 km/h
772 17-07-2019 16:15:00 23.1 C 11.58 g/m*3 23.1 C 14.5 km/h
773 17-07-2019 16:20:00 23.2 C 12.06 g/m*3 23.2 C 6.4 km/h
774 17-07-2019 16:25:00 23.7 C 11.76 g/m*3 23.7 C 14.5 km/h
775 17-07-2019 16:30:00 23.9 C 11.68 g/m*3 23.9 C 9.7 km/h
Sensor: Nr:Datum:Temp:Abs-Feuchte:Windchill:Wind:
Aussen-T/F 776 17-07-2019 16:35:00 24.1 C 11.82 g/m*3 24.1 C 9.7 km/h
777 17-07-2019 16:40:00 24.1 C 11.6 g/m*3 24.1 C 14.5 km/h
778 17-07-2019 16:45:00 24.1 C 11.82 g/m*3 24.1 C 8.1 km/h
779 17-07-2019 16:50:00 24.2 C 11.66 g/m*3 24.2 C 11.3 km/h
780 17-07-2019 16:55:00 23.9 C 11.68 g/m*3 23.9 C 12.9 km/h
781 17-07-2019 17:00:00 23.7 C 11.76 g/m*3 23.7 C 11.3 km/h
782 17-07-2019 17:05:00 24 C 11.75 g/m*3 24 C 9.7 km/h
783 17-07-2019 17:10:00 24.3 C 11.95 g/m*3 24.3 C 9.7 km/h
784 17-07-2019 17:15:00 24.6 C 12.15 g/m*3 24.6 C 12.9 km/h
785 17-07-2019 17:20:00 24.6 C 11.7 g/m*3 24.6 C 9.7 km/h
786 17-07-2019 17:25:00 24.7 C 12 g/m*3 24.7 C 12.9 km/h
787 17-07-2019 17:30:00 24.8 C 12.06 g/m*3 24.8 C 9.7 km/h
788 17-07-2019 17:35:00 24.8 C 11.84 g/m*3 24.8 C 9.7 km/h
789 17-07-2019 17:40:00 24.7 C 11.77 g/m*3 24.7 C 9.7 km/h
790 17-07-2019 17:45:00 24.9 C 12.13 g/m*3 24.9 C 6.4 km/h
791 17-07-2019 17:50:00 25 C 11.74 g/m*3 25 C 9.7 km/h
792 17-07-2019 17:55:00 24.8 C 12.06 g/m*3 24.8 C 11.3 km/h
793 17-07-2019 18:00:00 24.8 C 12.06 g/m*3 24.8 C 8.1 km/h
794 17-07-2019 18:05:00 24.7 C 12 g/m*3 24.7 C 9.7 km/h
795 17-07-2019 18:10:00 24.7 C 11.77 g/m*3 24.7 C 8.1 km/h
796 17-07-2019 18:15:00 24.6 C 11.93 g/m*3 24.6 C 12.9 km/h
797 17-07-2019 18:20:00 24.4 C 11.79 g/m*3 24.4 C 14.5 km/h
798 17-07-2019 18:25:00 24.2 C 11.88 g/m*3 24.2 C 12.9 km/h
799 17-07-2019 18:30:00 24.1 C 12.03 g/m*3 24.1 C 12.9 km/h
800 17-07-2019 18:35:00 23.9 C 11.9 g/m*3 23.9 C 11.3 km/h
Sensor: Nr:Datum:Temp:Abs-Feuchte:Windchill:Wind:
Aussen-T/F 801 17-07-2019 18:40:00 23.8 C 12.05 g/m*3 23.8 C 11.3 km/h
802 17-07-2019 18:45:00 23.9 C 12.11 g/m*3 23.9 C 11.3 km/h
803 17-07-2019 18:50:00 23.9 C 11.9 g/m*3 23.9 C 8.1 km/h
804 17-07-2019 18:55:00 23.9 C 11.9 g/m*3 23.9 C 14.5 km/h
805 17-07-2019 19:00:00 23.7 C 12.19 g/m*3 23.7 C 11.3 km/h
806 17-07-2019 19:05:00 23.7 C 12.19 g/m*3 23.7 C 11.3 km/h
807 17-07-2019 19:10:00 23.9 C 12.11 g/m*3 23.9 C 8.1 km/h
808 17-07-2019 19:15:00 23.7 C 12.19 g/m*3 23.7 C 9.7 km/h
809 17-07-2019 19:20:00 23.6 C 12.34 g/m*3 23.6 C 8.1 km/h
810 17-07-2019 19:25:00 23.6 C 12.12 g/m*3 23.6 C 9.7 km/h
811 17-07-2019 19:30:00 23.3 C 12.13 g/m*3 23.3 C 12.9 km/h
812 17-07-2019 19:35:00 23.1 C 12.2 g/m*3 23.1 C 9.7 km/h
813 17-07-2019 19:40:00 22.7 C 12.12 g/m*3 22.7 C 12.9 km/h
814 17-07-2019 19:45:00 22.5 C 11.98 g/m*3 22.5 C 8.1 km/h
815 17-07-2019 19:50:00 22.4 C 12.11 g/m*3 22.4 C 8.1 km/h
816 17-07-2019 19:55:00 22.3 C 12.24 g/m*3 22.3 C 12.9 km/h
817 17-07-2019 20:00:00 22.2 C 11.98 g/m*3 22.2 C 12.9 km/h
818 17-07-2019 20:05:00 22.2 C 11.98 g/m*3 22.2 C 8.1 km/h
819 17-07-2019 20:10:00 22.1 C 12.1 g/m*3 22.1 C 9.7 km/h
820 17-07-2019 20:15:00 21.9 C 12.16 g/m*3 21.9 C 11.3 km/h
821 17-07-2019 20:20:00 21.8 C 12.28 g/m*3 21.8 C 6.4 km/h
822 17-07-2019 20:25:00 21.6 C 12.33 g/m*3 21.6 C 4.8 km/h
823 17-07-2019 20:30:00 21.4 C 12.19 g/m*3 21.4 C 6.4 km/h
824 17-07-2019 20:35:00 21.3 C 12.12 g/m*3 21.3 C 8.1 km/h
825 17-07-2019 20:40:00 21.2 C 12.05 g/m*3 21.2 C 9.7 km/h
Sensor: Nr:Datum:Temp:Abs-Feuchte:Windchill:Wind:
Aussen-T/F 826 17-07-2019 20:45:00 21 C 12.09 g/m*3 21 C 9.7 km/h
827 17-07-2019 20:50:00 20.9 C 12.2 g/m*3 20.9 C 9.7 km/h
828 17-07-2019 20:55:00 20.7 C 12.06 g/m*3 20.7 C 8.1 km/h
829 17-07-2019 21:00:00 20.6 C 12.17 g/m*3 20.6 C 8.1 km/h
830 17-07-2019 21:05:00 20.4 C 12.03 g/m*3 20.4 C 8.1 km/h
831 17-07-2019 21:10:00 20.3 C 11.96 g/m*3 20.3 C 4.8 km/h
832 17-07-2019 21:15:00 20.2 C 12.06 g/m*3 20.2 C 4.8 km/h
833 17-07-2019 21:20:00 20.1 C 11.99 g/m*3 20.1 C 6.4 km/h
834 17-07-2019 21:25:00 20.1 C 12.17 g/m*3 20.1 C 0 km/h
835 17-07-2019 21:30:00 19.9 C 12.2 g/m*3 19.9 C 0 km/h
836 17-07-2019 21:35:00 19.6 C 11.99 g/m*3 19.6 C 0 km/h
837 17-07-2019 21:40:00 19.3 C 11.94 g/m*3 19.3 C 0 km/h
838 17-07-2019 21:45:00 18.9 C 11.83 g/m*3 18.9 C 0 km/h
839 17-07-2019 21:50:00 18.6 C 11.78 g/m*3 18.6 C 0 km/h
840 17-07-2019 21:55:00 18.3 C 11.73 g/m*3 18.3 C 0 km/h
841 17-07-2019 22:00:00 18 C 11.67 g/m*3 18 C 1.6 km/h
842 17-07-2019 22:05:00 17.7 C 11.62 g/m*3 17.7 C 0 km/h
843 17-07-2019 22:10:00 17.5 C 11.63 g/m*3 17.5 C 0 km/h
844 17-07-2019 22:15:00 17.3 C 11.64 g/m*3 17.3 C 0 km/h
845 17-07-2019 22:20:00 17.2 C 11.72 g/m*3 17.2 C 0 km/h
846 17-07-2019 22:25:00 17.1 C 11.65 g/m*3 17.1 C 0 km/h
847 17-07-2019 22:30:00 16.9 C 11.65 g/m*3 16.9 C 0 km/h
848 17-07-2019 22:35:00 16.8 C 11.58 g/m*3 16.8 C 0 km/h
849 17-07-2019 22:40:00 16.7 C 11.51 g/m*3 16.7 C 0 km/h
850 17-07-2019 22:45:00 16.6 C 11.58 g/m*3 16.6 C 0 km/h
Sensor: Nr:Datum:Temp:Abs-Feuchte:Windchill:Wind:
Aussen-T/F 851 17-07-2019 22:50:00 16.4 C 11.45 g/m*3 16.4 C 0 km/h
852 17-07-2019 22:55:00 16.4 C 11.58 g/m*3 16.4 C 0 km/h
853 17-07-2019 23:00:00 16.3 C 11.65 g/m*3 16.3 C 0 km/h
854 17-07-2019 23:05:00 16.3 C 11.65 g/m*3 16.3 C 0 km/h
855 17-07-2019 23:10:00 16.3 C 11.65 g/m*3 16.3 C 0 km/h
856 17-07-2019 23:15:00 16.2 C 11.58 g/m*3 16.2 C 0 km/h
857 17-07-2019 23:20:00 16.2 C 11.58 g/m*3 16.2 C 0 km/h
858 17-07-2019 23:25:00 16.1 C 11.51 g/m*3 16.1 C 0 km/h
859 17-07-2019 23:30:00 16 C 11.58 g/m*3 16 C 0 km/h
860 17-07-2019 23:35:00 15.9 C 11.51 g/m*3 15.9 C 0 km/h
861 17-07-2019 23:40:00 15.8 C 11.44 g/m*3 15.8 C 0 km/h
862 17-07-2019 23:45:00 15.8 C 11.44 g/m*3 15.8 C 0 km/h
863 17-07-2019 23:50:00 15.7 C 11.37 g/m*3 15.7 C 0 km/h
864 17-07-2019 23:55:00 15.7 C 11.37 g/m*3 15.7 C 0 km/h
865 18-07-2019 00:00:00 15.6 C 11.3 g/m*3 15.6 C 0 km/h
866 18-07-2019 00:05:00 15.6 C 11.3 g/m*3 15.6 C 0 km/h
867 18-07-2019 00:10:00 15.5 C 11.37 g/m*3 15.5 C 0 km/h
868 18-07-2019 00:15:00 15.4 C 11.3 g/m*3 15.4 C 0 km/h
869 18-07-2019 00:20:00 15.4 C 11.3 g/m*3 15.4 C 0 km/h
870 18-07-2019 00:25:00 15.3 C 11.23 g/m*3 15.3 C 0 km/h
871 18-07-2019 00:30:00 15.3 C 11.23 g/m*3 15.3 C 0 km/h
872 18-07-2019 00:35:00 15.2 C 11.16 g/m*3 15.2 C 0 km/h
873 18-07-2019 00:40:00 15.2 C 11.16 g/m*3 15.2 C 0 km/h
874 18-07-2019 00:45:00 15.1 C 11.22 g/m*3 15.1 C 0 km/h
875 18-07-2019 00:50:00 15 C 11.16 g/m*3 15 C 0 km/h
Sensor: Nr:Datum:Temp:Abs-Feuchte:Windchill:Wind:
Aussen-T/F 876 18-07-2019 00:55:00 14.9 C 11.09 g/m*3 14.9 C 0 km/h
877 18-07-2019 01:00:00 14.8 C 11.02 g/m*3 14.8 C 0 km/h
878 18-07-2019 01:05:00 14.7 C 11.08 g/m*3 14.7 C 0 km/h
879 18-07-2019 01:10:00 14.7 C 11.08 g/m*3 14.7 C 0 km/h
880 18-07-2019 01:15:00 14.6 C 11.01 g/m*3 14.6 C 0 km/h
881 18-07-2019 01:20:00 14.4 C 10.88 g/m*3 14.4 C 0 km/h
882 18-07-2019 01:25:00 14.4 C 10.88 g/m*3 14.4 C 0 km/h
883 18-07-2019 01:30:00 14.3 C 10.81 g/m*3 14.3 C 0 km/h
884 18-07-2019 01:35:00 14.1 C 10.8 g/m*3 14.1 C 0 km/h
885 18-07-2019 01:40:00 14 C 10.74 g/m*3 14 C 0 km/h
886 18-07-2019 01:45:00 13.9 C 10.67 g/m*3 13.9 C 0 km/h
887 18-07-2019 01:50:00 13.8 C 10.72 g/m*3 13.8 C 0 km/h
888 18-07-2019 01:55:00 13.8 C 10.72 g/m*3 13.8 C 0 km/h
889 18-07-2019 02:00:00 13.8 C 10.72 g/m*3 13.8 C 0 km/h
890 18-07-2019 02:05:00 13.8 C 10.84 g/m*3 13.8 C 0 km/h
891 18-07-2019 02:10:00 13.7 C 10.78 g/m*3 13.7 C 0 km/h
892 18-07-2019 02:15:00 13.7 C 10.78 g/m*3 13.7 C 0 km/h
893 18-07-2019 02:20:00 13.7 C 10.78 g/m*3 13.7 C 0 km/h
894 18-07-2019 02:25:00 13.7 C 10.78 g/m*3 13.7 C 0 km/h
895 18-07-2019 02:30:00 13.6 C 10.71 g/m*3 13.6 C 0 km/h
896 18-07-2019 02:35:00 13.6 C 10.71 g/m*3 13.6 C 0 km/h
897 18-07-2019 02:40:00 13.7 C 10.89 g/m*3 13.7 C 0 km/h
898 18-07-2019 02:45:00 13.7 C 10.89 g/m*3 13.7 C 0 km/h
899 18-07-2019 02:50:00 13.7 C 10.89 g/m*3 13.7 C 0 km/h
900 18-07-2019 02:55:00 13.6 C 10.83 g/m*3 13.6 C 0 km/h
Sensor: Nr:Datum:Temp:Abs-Feuchte:Windchill:Wind:
Aussen-T/F 901 18-07-2019 03:00:00 13.6 C 10.83 g/m*3 13.6 C 0 km/h
902 18-07-2019 03:05:00 13.6 C 10.83 g/m*3 13.6 C 0 km/h
903 18-07-2019 03:10:00 13.5 C 10.76 g/m*3 13.5 C 0 km/h
904 18-07-2019 03:15:00 13.5 C 10.76 g/m*3 13.5 C 0 km/h
905 18-07-2019 03:20:00 13.5 C 10.76 g/m*3 13.5 C 0 km/h
906 18-07-2019 03:25:00 13.4 C 10.69 g/m*3 13.4 C 0 km/h
907 18-07-2019 03:30:00 13.4 C 10.69 g/m*3 13.4 C 0 km/h
908 18-07-2019 03:35:00 13.4 C 10.69 g/m*3 13.4 C 0 km/h
909 18-07-2019 03:40:00 13.4 C 10.69 g/m*3 13.4 C 0 km/h
910 18-07-2019 03:45:00 13.4 C 10.81 g/m*3 13.4 C 0 km/h
911 18-07-2019 03:50:00 13.4 C 10.81 g/m*3 13.4 C 0 km/h
912 18-07-2019 03:55:00 13.4 C 10.81 g/m*3 13.4 C 0 km/h
913 18-07-2019 04:00:00 13.4 C 10.81 g/m*3 13.4 C 0 km/h
914 18-07-2019 04:05:00 13.4 C 10.81 g/m*3 13.4 C 0 km/h
915 18-07-2019 04:10:00 13.4 C 10.81 g/m*3 13.4 C 0 km/h
916 18-07-2019 04:15:00 13.4 C 10.81 g/m*3 13.4 C 0 km/h
917 18-07-2019 04:20:00 13.3 C 10.74 g/m*3 13.3 C 0 km/h
918 18-07-2019 04:25:00 13.3 C 10.74 g/m*3 13.3 C 0 km/h
919 18-07-2019 04:30:00 13.3 C 10.74 g/m*3 13.3 C 0 km/h
920 18-07-2019 04:35:00 13.2 C 10.68 g/m*3 13.2 C 0 km/h
921 18-07-2019 04:40:00 13.2 C 10.68 g/m*3 13.2 C 0 km/h
922 18-07-2019 04:45:00 13.1 C 10.61 g/m*3 13.1 C 0 km/h
923 18-07-2019 04:50:00 13 C 10.43 g/m*3 13 C 0 km/h
924 18-07-2019 04:55:00 12.9 C 10.48 g/m*3 12.9 C 0 km/h
925 18-07-2019 05:00:00 12.9 C 10.48 g/m*3 12.9 C 0 km/h
Sensor: Nr:Datum:Temp:Abs-Feuchte:Windchill:Wind:
Aussen-T/F 926 18-07-2019 05:05:00 12.8 C 10.42 g/m*3 12.8 C 0 km/h
927 18-07-2019 05:10:00 12.8 C 10.42 g/m*3 12.8 C 0 km/h
928 18-07-2019 05:15:00 12.8 C 10.42 g/m*3 12.8 C 0 km/h
929 18-07-2019 05:20:00 12.8 C 10.42 g/m*3 12.8 C 0 km/h
930 18-07-2019 05:25:00 12.7 C 10.35 g/m*3 12.7 C 0 km/h
931 18-07-2019 05:30:00 12.7 C 10.35 g/m*3 12.7 C 0 km/h
932 18-07-2019 05:35:00 12.6 C 10.29 g/m*3 12.6 C 0 km/h
933 18-07-2019 05:40:00 12.6 C 10.29 g/m*3 12.6 C 0 km/h
934 18-07-2019 05:45:00 12.5 C 10.22 g/m*3 12.5 C 0 km/h
935 18-07-2019 05:50:00 12.5 C 10.22 g/m*3 12.5 C 0 km/h
936 18-07-2019 05:55:00 12.4 C 10.27 g/m*3 12.4 C 0 km/h
937 18-07-2019 06:00:00 12.4 C 10.27 g/m*3 12.4 C 0 km/h
938 18-07-2019 06:05:00 12.4 C 10.27 g/m*3 12.4 C 0 km/h
939 18-07-2019 06:10:00 12.4 C 10.27 g/m*3 12.4 C 0 km/h
940 18-07-2019 06:15:00 12.3 C 10.21 g/m*3 12.3 C 0 km/h
941 18-07-2019 06:20:00 12.4 C 10.27 g/m*3 12.4 C 0 km/h
942 18-07-2019 06:25:00 12.4 C 10.27 g/m*3 12.4 C 0 km/h
943 18-07-2019 06:30:00 12.4 C 10.27 g/m*3 12.4 C 0 km/h
944 18-07-2019 06:35:00 12.4 C 10.27 g/m*3 12.4 C 0 km/h
945 18-07-2019 06:40:00 12.5 C 10.44 g/m*3 12.5 C 0 km/h
946 18-07-2019 06:45:00 12.6 C 10.51 g/m*3 12.6 C 0 km/h
947 18-07-2019 06:50:00 12.6 C 10.51 g/m*3 12.6 C 0 km/h
948 18-07-2019 06:55:00 12.7 C 10.58 g/m*3 12.7 C 0 km/h
949 18-07-2019 07:00:00 12.8 C 10.64 g/m*3 12.8 C 0 km/h
950 18-07-2019 07:05:00 12.9 C 10.71 g/m*3 12.9 C 0 km/h
Sensor: Nr:Datum:Temp:Abs-Feuchte:Windchill:Wind:
Aussen-T/F 951 18-07-2019 07:10:00 13 C 10.77 g/m*3 13 C 0 km/h
952 18-07-2019 07:15:00 13.1 C 10.84 g/m*3 13.1 C 0 km/h
953 18-07-2019 07:20:00 13.2 C 10.91 g/m*3 13.2 C 0 km/h
954 18-07-2019 07:25:00 13.2 C 10.91 g/m*3 13.2 C 0 km/h
955 18-07-2019 07:30:00 13.3 C 10.98 g/m*3 13.3 C 0 km/h
956 18-07-2019 07:35:00 13.4 C 11.04 g/m*3 13.4 C 0 km/h
957 18-07-2019 07:40:00 13.4 C 11.04 g/m*3 13.4 C 0 km/h
958 18-07-2019 07:45:00 13.5 C 11.11 g/m*3 13.5 C 0 km/h
959 18-07-2019 07:50:00 13.6 C 11.18 g/m*3 13.6 C 0 km/h
960 18-07-2019 07:55:00 13.7 C 11.25 g/m*3 13.7 C 0 km/h
961 18-07-2019 08:00:00 13.7 C 11.13 g/m*3 13.7 C 0 km/h
962 18-07-2019 08:05:00 13.8 C 11.2 g/m*3 13.8 C 0 km/h
963 18-07-2019 08:10:00 13.9 C 11.27 g/m*3 13.9 C 0 km/h
964 18-07-2019 08:15:00 14 C 11.34 g/m*3 14 C 0 km/h
965 18-07-2019 08:20:00 14.1 C 11.41 g/m*3 14.1 C 0 km/h
966 18-07-2019 08:25:00 14.3 C 11.55 g/m*3 14.3 C 0 km/h
967 18-07-2019 08:30:00 14.3 C 11.43 g/m*3 14.3 C 1.6 km/h
968 18-07-2019 08:35:00 14.4 C 11.5 g/m*3 14.4 C 0 km/h
969 18-07-2019 08:40:00 14.6 C 11.51 g/m*3 14.6 C 0 km/h
970 18-07-2019 08:45:00 14.7 C 11.58 g/m*3 14.7 C 0 km/h
971 18-07-2019 08:50:00 14.9 C 11.73 g/m*3 14.9 C 0 km/h
972 18-07-2019 08:55:00 15.1 C 11.87 g/m*3 15.1 C 0 km/h
973 18-07-2019 09:00:00 15.2 C 11.94 g/m*3 15.2 C 0 km/h
974 18-07-2019 09:05:00 15.4 C 12.09 g/m*3 15.4 C 0 km/h
975 18-07-2019 09:10:00 15.6 C 12.1 g/m*3 15.6 C 0 km/h
Sensor: Nr:Datum:Temp:Abs-Feuchte:Windchill:Wind:
Aussen-T/F 976 18-07-2019 09:15:00 15.7 C 12.18 g/m*3 15.7 C 0 km/h
977 18-07-2019 09:20:00 15.9 C 12.32 g/m*3 15.9 C 0 km/h
978 18-07-2019 09:25:00 16.1 C 12.2 g/m*3 16.1 C 0 km/h
979 18-07-2019 09:30:00 16.3 C 12.21 g/m*3 16.3 C 0 km/h
980 18-07-2019 09:35:00 16.4 C 12.28 g/m*3 16.4 C 0 km/h
981 18-07-2019 09:40:00 16.7 C 12.51 g/m*3 16.7 C 0 km/h
982 18-07-2019 09:45:00 16.9 C 12.37 g/m*3 16.9 C 0 km/h
983 18-07-2019 09:50:00 17.1 C 12.52 g/m*3 17.1 C 0 km/h
984 18-07-2019 09:55:00 17.3 C 12.82 g/m*3 17.3 C 0 km/h
985 18-07-2019 10:00:00 17.4 C 12.89 g/m*3 17.4 C 0 km/h
986 18-07-2019 10:05:00 17.6 C 12.75 g/m*3 17.6 C 0 km/h
987 18-07-2019 10:10:00 17.7 C 12.82 g/m*3 17.7 C 0 km/h
988 18-07-2019 10:15:00 17.9 C 12.98 g/m*3 17.9 C 0 km/h
989 18-07-2019 10:20:00 18.2 C 13.06 g/m*3 18.2 C 0 km/h
990 18-07-2019 10:25:00 18.5 C 13.13 g/m*3 18.5 C 0 km/h
991 18-07-2019 10:30:00 18.9 C 12.96 g/m*3 18.9 C 0 km/h
992 18-07-2019 10:35:00 19.3 C 13.27 g/m*3 19.3 C 1.6 km/h
993 18-07-2019 10:40:00 19.7 C 13.25 g/m*3 19.7 C 0 km/h
994 18-07-2019 10:45:00 20 C 13.31 g/m*3 20 C 0 km/h
995 18-07-2019 10:50:00 20.3 C 13.54 g/m*3 20.3 C 0 km/h
996 18-07-2019 10:55:00 20.5 C 13.35 g/m*3 20.5 C 0 km/h
997 18-07-2019 11:00:00 20.7 C 13.68 g/m*3 20.7 C 0 km/h
998 18-07-2019 11:05:00 20.8 C 13.4 g/m*3 20.8 C 0 km/h
999 18-07-2019 11:10:00 20.9 C 13.3 g/m*3 20.9 C 0 km/h
1000 18-07-2019 11:15:00 21.1 C 12.53 g/m*3 21.1 C 4.8 km/h
Sensor: Nr:Datum:Temp:Abs-Feuchte:Windchill:Wind:
Aussen-T/F 1001 18-07-2019 11:20:00 21.3 C 11.93 g/m*3 21.3 C 8.1 km/h
1002 18-07-2019 11:25:00 21.7 C 11.83 g/m*3 21.7 C 6.4 km/h
1003 18-07-2019 11:30:00 22.1 C 12.1 g/m*3 22.1 C 4.8 km/h
1004 18-07-2019 11:35:00 22.3 C 11.85 g/m*3 22.3 C 4.8 km/h
1005 18-07-2019 11:40:00 22.6 C 12.05 g/m*3 22.6 C 8.1 km/h
1006 18-07-2019 11:45:00 22.9 C 11.85 g/m*3 22.9 C 9.7 km/h
1007 18-07-2019 11:50:00 23.1 C 11.99 g/m*3 23.1 C 8.1 km/h
1008 18-07-2019 11:55:00 23.2 C 12.06 g/m*3 23.2 C 8.1 km/h
1009 18-07-2019 12:00:00 23.3 C 12.34 g/m*3 23.3 C 6.4 km/h
1010 18-07-2019 12:05:00 23.4 C 11.99 g/m*3 23.4 C 3.2 km/h
1011 18-07-2019 12:10:00 23.6 C 11.7 g/m*3 23.6 C 4.8 km/h
1012 18-07-2019 12:15:00 23.8 C 12.05 g/m*3 23.8 C 0 km/h
1013 18-07-2019 12:20:00 23.9 C 11.68 g/m*3 23.9 C 6.4 km/h
1014 18-07-2019 12:25:00 24.3 C 11.95 g/m*3 24.3 C 8.1 km/h
1015 18-07-2019 12:30:00 24.5 C 12.09 g/m*3 24.5 C 4.8 km/h
1016 18-07-2019 12:35:00 24.7 C 12 g/m*3 24.7 C 4.8 km/h
1017 18-07-2019 12:40:00 24.7 C 11.77 g/m*3 24.7 C 3.2 km/h
1018 18-07-2019 12:45:00 24.7 C 11.77 g/m*3 24.7 C 6.4 km/h
1019 18-07-2019 12:50:00 24.7 C 12.22 g/m*3 24.7 C 4.8 km/h
1020 18-07-2019 12:55:00 24.6 C 11.25 g/m*3 24.6 C 3.2 km/h
1021 18-07-2019 13:00:00 24.8 C 11.61 g/m*3 24.8 C 6.4 km/h
1022 18-07-2019 13:05:00 24.9 C 11.45 g/m*3 24.9 C 3.2 km/h
1023 18-07-2019 13:10:00 25.1 C 11.57 g/m*3 25.1 C 4.8 km/h
1024 18-07-2019 13:15:00 25.2 C 11.64 g/m*3 25.2 C 3.2 km/h
1025 18-07-2019 13:20:00 25.4 C 11.77 g/m*3 25.4 C 8.1 km/h
Sensor: Nr:Datum:Temp:Abs-Feuchte:Windchill:Wind:
Aussen-T/F 1026 18-07-2019 13:25:00 25.6 C 11.67 g/m*3 25.6 C 4.8 km/h
1027 18-07-2019 13:30:00 25.8 C 11.8 g/m*3 25.8 C 4.8 km/h
1028 18-07-2019 13:35:00 26.1 C 12.24 g/m*3 26.1 C 4.8 km/h
1029 18-07-2019 13:40:00 26.3 C 12.38 g/m*3 26.3 C 6.4 km/h
1030 18-07-2019 13:45:00 26.3 C 11.64 g/m*3 26.3 C 6.4 km/h
1031 18-07-2019 13:50:00 26.4 C 12.2 g/m*3 26.4 C 4.8 km/h
1032 18-07-2019 13:55:00 26.7 C 11.14 g/m*3 26.7 C 16.1 km/h
1033 18-07-2019 14:00:00 26.8 C 10.69 g/m*3 26.8 C 19.3 km/h
1034 18-07-2019 14:05:00 27 C 11.58 g/m*3 27 C 9.7 km/h
1035 18-07-2019 14:10:00 27.3 C 10.99 g/m*3 27.3 C 17.7 km/h
1036 18-07-2019 14:15:00 27.4 C 10.79 g/m*3 27.4 C 12.9 km/h
1037 18-07-2019 14:20:00 27.6 C 10.64 g/m*3 27.6 C 14.5 km/h
1038 18-07-2019 14:25:00 27.5 C 10.32 g/m*3 27.5 C 8.1 km/h
1039 18-07-2019 14:30:00 27.3 C 10.73 g/m*3 27.3 C 6.4 km/h
1040 18-07-2019 14:35:00 27.2 C 10.93 g/m*3 27.2 C 6.4 km/h
1041 18-07-2019 14:40:00 27.2 C 10.41 g/m*3 27.2 C 6.4 km/h
1042 18-07-2019 14:45:00 27.2 C 10.93 g/m*3 27.2 C 6.4 km/h
1043 18-07-2019 14:50:00 27.1 C 10.09 g/m*3 27.1 C 9.7 km/h
1044 18-07-2019 14:55:00 26.9 C 10.24 g/m*3 26.9 C 6.4 km/h
1045 18-07-2019 15:00:00 26.8 C 9.93 g/m*3 26.8 C 9.7 km/h
1046 18-07-2019 15:05:00 26.8 C 11.45 g/m*3 26.8 C 3.2 km/h
1047 18-07-2019 15:10:00 26.6 C 10.57 g/m*3 26.6 C 6.4 km/h
1048 18-07-2019 15:15:00 26.3 C 10.89 g/m*3 26.3 C 11.3 km/h
1049 18-07-2019 15:20:00 26.1 C 10.77 g/m*3 26.1 C 9.7 km/h
1050 18-07-2019 15:25:00 25.9 C 11.62 g/m*3 25.9 C 4.8 km/h
Sensor: Nr:Datum:Temp:Abs-Feuchte:Windchill:Wind:
Aussen-T/F 1051 18-07-2019 15:30:00 25.8 C 12.04 g/m*3 25.8 C 4.8 km/h
1052 18-07-2019 15:35:00 25.7 C 10.29 g/m*3 25.7 C 9.7 km/h
1053 18-07-2019 15:40:00 25.7 C 10.53 g/m*3 25.7 C 8.1 km/h
1054 18-07-2019 15:45:00 25.6 C 10.24 g/m*3 25.6 C 14.5 km/h
1055 18-07-2019 15:50:00 25.6 C 10.71 g/m*3 25.6 C 8.1 km/h
1056 18-07-2019 15:55:00 25.6 C 12.38 g/m*3 25.6 C 0 km/h
1057 18-07-2019 16:00:00 25.5 C 12.31 g/m*3 25.5 C 0 km/h
1058 18-07-2019 16:05:00 25.2 C 11.87 g/m*3 25.2 C 0 km/h
1059 18-07-2019 16:10:00 24.9 C 12.13 g/m*3 24.9 C 4.8 km/h
1060 18-07-2019 16:15:00 24.7 C 12.45 g/m*3 24.7 C 1.6 km/h
1061 18-07-2019 16:20:00 24.5 C 12.76 g/m*3 24.5 C 1.6 km/h
1062 18-07-2019 16:25:00 24.6 C 11.48 g/m*3 24.6 C 12.9 km/h
1063 18-07-2019 16:30:00 24.6 C 11.25 g/m*3 24.6 C 16.1 km/h
1064 18-07-2019 16:35:00 24.6 C 11.25 g/m*3 24.6 C 11.3 km/h
1065 18-07-2019 16:40:00 24.5 C 11.64 g/m*3 24.5 C 9.7 km/h
1066 18-07-2019 16:45:00 24.6 C 11.7 g/m*3 24.6 C 6.4 km/h
1067 18-07-2019 16:50:00 24.7 C 11.54 g/m*3 24.7 C 9.7 km/h
1068 18-07-2019 16:55:00 24.8 C 12.52 g/m*3 24.8 C 6.4 km/h
1069 18-07-2019 17:00:00 24.9 C 11.45 g/m*3 24.9 C 11.3 km/h
1070 18-07-2019 17:05:00 24.9 C 11.45 g/m*3 24.9 C 4.8 km/h
1071 18-07-2019 17:10:00 24.9 C 12.13 g/m*3 24.9 C 4.8 km/h
1072 18-07-2019 17:15:00 24.8 C 12.29 g/m*3 24.8 C 0 km/h
1073 18-07-2019 17:20:00 24.8 C 12.97 g/m*3 24.8 C 3.2 km/h
1074 18-07-2019 17:25:00 24.8 C 12.52 g/m*3 24.8 C 1.6 km/h
1075 18-07-2019 17:30:00 24.8 C 12.52 g/m*3 24.8 C 6.4 km/h
Sensor: Nr:Datum:Temp:Abs-Feuchte:Windchill:Wind:
Aussen-T/F 1076 18-07-2019 17:35:00 24.9 C 13.05 g/m*3 24.9 C 0 km/h
1077 18-07-2019 17:40:00 24.9 C 13.28 g/m*3 24.9 C 0 km/h
1078 18-07-2019 17:45:00 24.8 C 13.43 g/m*3 24.8 C 0 km/h
1079 18-07-2019 17:50:00 24.8 C 14.11 g/m*3 24.8 C 0 km/h
1080 18-07-2019 17:55:00 24.8 C 14.34 g/m*3 24.8 C 0 km/h
1081 18-07-2019 18:00:00 24.7 C 12.68 g/m*3 24.7 C 1.6 km/h
1082 18-07-2019 18:05:00 24.8 C 13.88 g/m*3 24.8 C 0 km/h
1083 18-07-2019 18:10:00 24.8 C 13.66 g/m*3 24.8 C 3.2 km/h
1084 18-07-2019 18:15:00 24.8 C 11.84 g/m*3 24.8 C 6.4 km/h
1085 18-07-2019 18:20:00 24.7 C 12.22 g/m*3 24.7 C 4.8 km/h
1086 18-07-2019 18:25:00 24.7 C 11.54 g/m*3 24.7 C 1.6 km/h
1087 18-07-2019 18:30:00 24.6 C 14.85 g/m*3 24.6 C 0 km/h
1088 18-07-2019 18:35:00 24.2 C 14.52 g/m*3 24.2 C 1.6 km/h
1089 18-07-2019 18:40:00 23.5 C 14.8 g/m*3 23.5 C 1.6 km/h
1090 18-07-2019 18:45:00 22.8 C 14.43 g/m*3 22.8 C 1.6 km/h
1091 18-07-2019 18:50:00 22.3 C 14.41 g/m*3 22.3 C 0 km/h
1092 18-07-2019 18:55:00 21.8 C 14.01 g/m*3 21.8 C 0 km/h
1093 18-07-2019 19:00:00 21.6 C 14.03 g/m*3 21.6 C 0 km/h
1094 18-07-2019 19:05:00 21.4 C 14.06 g/m*3 21.4 C 0 km/h
1095 18-07-2019 19:10:00 21.3 C 14.17 g/m*3 21.3 C 0 km/h
1096 18-07-2019 19:15:00 21.2 C 13.9 g/m*3 21.2 C 0 km/h
1097 18-07-2019 19:20:00 21.2 C 14.08 g/m*3 21.2 C 0 km/h
1098 18-07-2019 19:25:00 21.1 C 13.82 g/m*3 21.1 C 0 km/h
1099 18-07-2019 19:30:00 21 C 13.74 g/m*3 21 C 0 km/h
1100 18-07-2019 19:35:00 20.9 C 13.66 g/m*3 20.9 C 0 km/h
Sensor: Nr:Datum:Temp:Abs-Feuchte:Windchill:Wind:
Aussen-T/F 1101 18-07-2019 19:40:00 20.9 C 13.48 g/m*3 20.9 C 0 km/h
1102 18-07-2019 19:45:00 20.8 C 13.22 g/m*3 20.8 C 0 km/h
1103 18-07-2019 19:50:00 20.7 C 12.96 g/m*3 20.7 C 0 km/h
1104 18-07-2019 19:55:00 20.7 C 12.78 g/m*3 20.7 C 0 km/h
1105 18-07-2019 20:00:00 20.7 C 12.96 g/m*3 20.7 C 0 km/h
1106 18-07-2019 20:05:00 20.7 C 12.78 g/m*3 20.7 C 0 km/h
1107 18-07-2019 20:10:00 20.8 C 13.04 g/m*3 20.8 C 0 km/h
1108 18-07-2019 20:15:00 20.8 C 12.86 g/m*3 20.8 C 0 km/h
1109 18-07-2019 20:20:00 20.9 C 12.75 g/m*3 20.9 C 0 km/h
1110 18-07-2019 20:25:00 21 C 12.82 g/m*3 21 C 0 km/h
1111 18-07-2019 20:30:00 21 C 12.64 g/m*3 21 C 0 km/h
1112 18-07-2019 20:35:00 21 C 12.64 g/m*3 21 C 0 km/h
1113 18-07-2019 20:40:00 21 C 12.64 g/m*3 21 C 0 km/h
1114 18-07-2019 20:45:00 20.9 C 12.57 g/m*3 20.9 C 1.6 km/h
1115 18-07-2019 20:50:00 20.8 C 12.49 g/m*3 20.8 C 0 km/h
1116 18-07-2019 20:55:00 20.8 C 12.49 g/m*3 20.8 C 0 km/h
1117 18-07-2019 21:00:00 20.8 C 12.31 g/m*3 20.8 C 0 km/h
1118 18-07-2019 21:05:00 20.7 C 12.24 g/m*3 20.7 C 0 km/h
1119 18-07-2019 21:10:00 20.6 C 12.35 g/m*3 20.6 C 0 km/h
1120 18-07-2019 21:15:00 20.6 C 12.17 g/m*3 20.6 C 0 km/h
1121 18-07-2019 21:20:00 20.4 C 12.21 g/m*3 20.4 C 0 km/h
1122 18-07-2019 21:25:00 20.4 C 12.21 g/m*3 20.4 C 0 km/h
1123 18-07-2019 21:30:00 20.3 C 12.14 g/m*3 20.3 C 0 km/h
1124 18-07-2019 21:35:00 20.2 C 12.06 g/m*3 20.2 C 0 km/h
1125 18-07-2019 21:40:00 20.2 C 12.24 g/m*3 20.2 C 0 km/h
Sensor: Nr:Datum:Temp:Abs-Feuchte:Windchill:Wind:
Aussen-T/F 1126 18-07-2019 21:45:00 20.1 C 12.17 g/m*3 20.1 C 0 km/h
1127 18-07-2019 21:50:00 20 C 12.1 g/m*3 20 C 0 km/h
1128 18-07-2019 21:55:00 19.9 C 12.03 g/m*3 19.9 C 0 km/h
1129 18-07-2019 22:00:00 19.8 C 11.96 g/m*3 19.8 C 0 km/h
1130 18-07-2019 22:05:00 19.8 C 12.13 g/m*3 19.8 C 0 km/h
1131 18-07-2019 22:10:00 19.8 C 12.13 g/m*3 19.8 C 0 km/h
1132 18-07-2019 22:15:00 19.7 C 12.06 g/m*3 19.7 C 0 km/h
1133 18-07-2019 22:20:00 19.7 C 12.06 g/m*3 19.7 C 0 km/h
1134 18-07-2019 22:25:00 19.7 C 12.23 g/m*3 19.7 C 0 km/h
1135 18-07-2019 22:30:00 19.7 C 12.4 g/m*3 19.7 C 1.6 km/h
1136 18-07-2019 22:35:00 19.7 C 12.4 g/m*3 19.7 C 1.6 km/h
1137 18-07-2019 22:40:00 19.6 C 12.15 g/m*3 19.6 C 0 km/h
1138 18-07-2019 22:45:00 19.6 C 12.15 g/m*3 19.6 C 0 km/h
1139 18-07-2019 22:50:00 19.5 C 12.08 g/m*3 19.5 C 0 km/h
1140 18-07-2019 22:55:00 19.4 C 12.01 g/m*3 19.4 C 0 km/h
1141 18-07-2019 23:00:00 19.4 C 12.01 g/m*3 19.4 C 0 km/h
1142 18-07-2019 23:05:00 19.4 C 12.01 g/m*3 19.4 C 0 km/h
1143 18-07-2019 23:10:00 19.4 C 12.01 g/m*3 19.4 C 0 km/h
1144 18-07-2019 23:15:00 19.3 C 11.94 g/m*3 19.3 C 0 km/h
1145 18-07-2019 23:20:00 19.3 C 12.11 g/m*3 19.3 C 0 km/h
1146 18-07-2019 23:25:00 19.3 C 12.11 g/m*3 19.3 C 0 km/h
1147 18-07-2019 23:30:00 19.3 C 12.11 g/m*3 19.3 C 0 km/h
1148 18-07-2019 23:35:00 19.3 C 12.11 g/m*3 19.3 C 0 km/h
1149 18-07-2019 23:40:00 19.3 C 11.94 g/m*3 19.3 C 0 km/h
1150 18-07-2019 23:45:00 19.4 C 12.18 g/m*3 19.4 C 0 km/h
Sensor: Nr:Datum:Temp:Abs-Feuchte:Windchill:Wind:
Aussen-T/F 1151 18-07-2019 23:50:00 19.4 C 12.18 g/m*3 19.4 C 0 km/h
1152 18-07-2019 23:55:00 19.5 C 12.08 g/m*3 19.5 C 0 km/h
1153 19-07-2019 00:00:00 19.6 C 12.15 g/m*3 19.6 C 0 km/h
1154 19-07-2019 00:05:00 19.6 C 12.32 g/m*3 19.6 C 0 km/h
1155 19-07-2019 00:10:00 19.5 C 12.25 g/m*3 19.5 C 0 km/h
1156 19-07-2019 00:15:00 19.5 C 12.42 g/m*3 19.5 C 0 km/h
1157 19-07-2019 00:20:00 19.4 C 12.35 g/m*3 19.4 C 0 km/h
1158 19-07-2019 00:25:00 19.3 C 12.27 g/m*3 19.3 C 0 km/h
1159 19-07-2019 00:30:00 19.3 C 12.27 g/m*3 19.3 C 0 km/h
1160 19-07-2019 00:35:00 19.2 C 12.2 g/m*3 19.2 C 0 km/h
1161 19-07-2019 00:40:00 19.2 C 12.2 g/m*3 19.2 C 0 km/h
1162 19-07-2019 00:45:00 19.2 C 12.37 g/m*3 19.2 C 0 km/h
1163 19-07-2019 00:50:00 19.1 C 12.46 g/m*3 19.1 C 0 km/h
1164 19-07-2019 00:55:00 19.1 C 12.46 g/m*3 19.1 C 0 km/h
1165 19-07-2019 01:00:00 19 C 12.39 g/m*3 19 C 0 km/h
1166 19-07-2019 01:05:00 18.9 C 12.47 g/m*3 18.9 C 0 km/h
1167 19-07-2019 01:10:00 18.9 C 12.64 g/m*3 18.9 C 0 km/h
1168 19-07-2019 01:15:00 18.9 C 12.8 g/m*3 18.9 C 0 km/h
1169 19-07-2019 01:20:00 18.8 C 13.05 g/m*3 18.8 C 0 km/h
1170 19-07-2019 01:25:00 18.7 C 13.29 g/m*3 18.7 C 0 km/h
1171 19-07-2019 01:30:00 18.5 C 13.29 g/m*3 18.5 C 0 km/h
1172 19-07-2019 01:35:00 18.3 C 13.13 g/m*3 18.3 C 0 km/h
1173 19-07-2019 01:40:00 18.1 C 13.13 g/m*3 18.1 C 0 km/h
1174 19-07-2019 01:45:00 17.9 C 13.28 g/m*3 17.9 C 0 km/h
1175 19-07-2019 01:50:00 17.8 C 13.2 g/m*3 17.8 C 0 km/h
Sensor: Nr:Datum:Temp:Abs-Feuchte:Windchill:Wind:
Aussen-T/F 1176 19-07-2019 01:55:00 17.7 C 13.28 g/m*3 17.7 C 0 km/h
1177 19-07-2019 02:00:00 17.6 C 13.2 g/m*3 17.6 C 0 km/h
1178 19-07-2019 02:05:00 17.4 C 13.19 g/m*3 17.4 C 0 km/h
1179 19-07-2019 02:10:00 17.3 C 13.11 g/m*3 17.3 C 0 km/h
1180 19-07-2019 02:15:00 17.2 C 13.03 g/m*3 17.2 C 0 km/h
1181 19-07-2019 02:20:00 17.1 C 12.96 g/m*3 17.1 C 0 km/h
1182 19-07-2019 02:25:00 17 C 13.02 g/m*3 17 C 0 km/h
1183 19-07-2019 02:30:00 16.9 C 12.94 g/m*3 16.9 C 0 km/h
1184 19-07-2019 02:35:00 16.9 C 13.09 g/m*3 16.9 C 0 km/h
1185 19-07-2019 02:40:00 16.9 C 13.09 g/m*3 16.9 C 0 km/h
1186 19-07-2019 02:45:00 16.8 C 13.01 g/m*3 16.8 C 0 km/h
1187 19-07-2019 02:50:00 16.8 C 13.01 g/m*3 16.8 C 0 km/h
1188 19-07-2019 02:55:00 16.8 C 13.01 g/m*3 16.8 C 0 km/h
1189 19-07-2019 03:00:00 16.7 C 12.93 g/m*3 16.7 C 0 km/h
1190 19-07-2019 03:05:00 16.7 C 12.93 g/m*3 16.7 C 0 km/h
1191 19-07-2019 03:10:00 16.7 C 13.07 g/m*3 16.7 C 0 km/h
1192 19-07-2019 03:15:00 16.7 C 13.07 g/m*3 16.7 C 0 km/h
1193 19-07-2019 03:20:00 16.6 C 13 g/m*3 16.6 C 0 km/h
1194 19-07-2019 03:25:00 16.6 C 13 g/m*3 16.6 C 0 km/h
1195 19-07-2019 03:30:00 16.6 C 13.14 g/m*3 16.6 C 0 km/h
1196 19-07-2019 03:35:00 16.6 C 13.14 g/m*3 16.6 C 0 km/h
1197 19-07-2019 03:40:00 16.6 C 13.14 g/m*3 16.6 C 0 km/h
1198 19-07-2019 03:45:00 16.5 C 13.06 g/m*3 16.5 C 0 km/h
1199 19-07-2019 03:50:00 16.5 C 13.06 g/m*3 16.5 C 0 km/h
1200 19-07-2019 03:55:00 16.5 C 13.06 g/m*3 16.5 C 0 km/h
Sensor: Nr:Datum:Temp:Abs-Feuchte:Windchill:Wind:
Aussen-T/F 1201 19-07-2019 04:00:00 16.5 C 13.06 g/m*3 16.5 C 0 km/h
1202 19-07-2019 04:05:00 16.4 C 12.98 g/m*3 16.4 C 0 km/h
1203 19-07-2019 04:10:00 16.4 C 12.98 g/m*3 16.4 C 0 km/h
1204 19-07-2019 04:15:00 16.4 C 12.98 g/m*3 16.4 C 0 km/h
1205 19-07-2019 04:20:00 16.4 C 12.98 g/m*3 16.4 C 0 km/h
1206 19-07-2019 04:25:00 16.4 C 12.98 g/m*3 16.4 C 0 km/h
1207 19-07-2019 04:30:00 16.4 C 12.98 g/m*3 16.4 C 0 km/h
1208 19-07-2019 04:35:00 16.4 C 13.12 g/m*3 16.4 C 0 km/h
1209 19-07-2019 04:40:00 16.3 C 13.04 g/m*3 16.3 C 0 km/h
1210 19-07-2019 04:45:00 16.3 C 13.04 g/m*3 16.3 C 0 km/h
1211 19-07-2019 04:50:00 16.3 C 13.04 g/m*3 16.3 C 0 km/h
1212 19-07-2019 04:55:00 16.3 C 13.04 g/m*3 16.3 C 0 km/h
1213 19-07-2019 05:00:00 16.3 C 13.04 g/m*3 16.3 C 0 km/h
1214 19-07-2019 05:05:00 16.3 C 13.04 g/m*3 16.3 C 0 km/h
1215 19-07-2019 05:10:00 16.3 C 13.04 g/m*3 16.3 C 0 km/h
1216 19-07-2019 05:15:00 16.3 C 13.04 g/m*3 16.3 C 0 km/h
1217 19-07-2019 05:20:00 16.3 C 13.04 g/m*3 16.3 C 0 km/h
1218 19-07-2019 05:25:00 16.3 C 13.04 g/m*3 16.3 C 0 km/h
1219 19-07-2019 05:30:00 16.3 C 13.04 g/m*3 16.3 C 0 km/h
1220 19-07-2019 05:35:00 16.3 C 13.04 g/m*3 16.3 C 0 km/h
1221 19-07-2019 05:40:00 16.3 C 13.04 g/m*3 16.3 C 0 km/h
1222 19-07-2019 05:45:00 16.3 C 13.04 g/m*3 16.3 C 0 km/h
1223 19-07-2019 05:50:00 16.3 C 13.18 g/m*3 16.3 C 0 km/h
1224 19-07-2019 05:55:00 16.3 C 13.18 g/m*3 16.3 C 0 km/h
1225 19-07-2019 06:00:00 16.3 C 13.18 g/m*3 16.3 C 0 km/h
Sensor: Nr:Datum:Temp:Abs-Feuchte:Windchill:Wind:
Aussen-T/F 1226 19-07-2019 06:05:00 16.3 C 13.18 g/m*3 16.3 C 0 km/h
1227 19-07-2019 06:10:00 16.3 C 13.18 g/m*3 16.3 C 0 km/h
1228 19-07-2019 06:15:00 16.3 C 13.18 g/m*3 16.3 C 0 km/h
1229 19-07-2019 06:20:00 16.3 C 13.18 g/m*3 16.3 C 0 km/h
1230 19-07-2019 06:25:00 16.3 C 13.18 g/m*3 16.3 C 0 km/h
1231 19-07-2019 06:30:00 16.4 C 13.26 g/m*3 16.4 C 0 km/h
1232 19-07-2019 06:35:00 16.4 C 13.26 g/m*3 16.4 C 0 km/h
1233 19-07-2019 06:40:00 16.4 C 13.26 g/m*3 16.4 C 0 km/h
1234 19-07-2019 06:45:00 16.4 C 13.26 g/m*3 16.4 C 0 km/h
1235 19-07-2019 06:50:00 16.4 C 13.26 g/m*3 16.4 C 0 km/h
1236 19-07-2019 06:55:00 16.4 C 13.26 g/m*3 16.4 C 0 km/h
1237 19-07-2019 07:00:00 16.5 C 13.34 g/m*3 16.5 C 0 km/h
1238 19-07-2019 07:05:00 16.6 C 13.42 g/m*3 16.6 C 0 km/h
1239 19-07-2019 07:10:00 16.6 C 13.42 g/m*3 16.6 C 0 km/h
1240 19-07-2019 07:15:00 16.6 C 13.42 g/m*3 16.6 C 0 km/h
1241 19-07-2019 07:20:00 16.6 C 13.42 g/m*3 16.6 C 0 km/h
1242 19-07-2019 07:25:00 16.7 C 13.5 g/m*3 16.7 C 0 km/h
1243 19-07-2019 07:30:00 16.7 C 13.5 g/m*3 16.7 C 0 km/h
1244 19-07-2019 07:35:00 16.7 C 13.5 g/m*3 16.7 C 0 km/h
1245 19-07-2019 07:40:00 16.8 C 13.58 g/m*3 16.8 C 0 km/h
1246 19-07-2019 07:45:00 16.8 C 13.73 g/m*3 16.8 C 0 km/h
1247 19-07-2019 07:50:00 16.9 C 13.81 g/m*3 16.9 C 0 km/h
1248 19-07-2019 07:55:00 16.9 C 13.81 g/m*3 16.9 C 0 km/h
1249 19-07-2019 08:00:00 16.9 C 13.81 g/m*3 16.9 C 0 km/h
1250 19-07-2019 08:05:00 16.9 C 13.81 g/m*3 16.9 C 0 km/h
Sensor: Nr:Datum:Temp:Abs-Feuchte:Windchill:Wind:
Aussen-T/F 1251 19-07-2019 08:10:00 17 C 13.89 g/m*3 17 C 0 km/h
1252 19-07-2019 08:15:00 17.1 C 13.97 g/m*3 17.1 C 0 km/h
1253 19-07-2019 08:20:00 17.1 C 13.97 g/m*3 17.1 C 0 km/h
1254 19-07-2019 08:25:00 17.2 C 14.06 g/m*3 17.2 C 0 km/h
1255 19-07-2019 08:30:00 17.3 C 14.14 g/m*3 17.3 C 0 km/h
1256 19-07-2019 08:35:00 17.4 C 14.23 g/m*3 17.4 C 0 km/h
1257 19-07-2019 08:40:00 17.4 C 14.23 g/m*3 17.4 C 0 km/h
1258 19-07-2019 08:45:00 17.4 C 14.23 g/m*3 17.4 C 0 km/h
1259 19-07-2019 08:50:00 17.5 C 14.31 g/m*3 17.5 C 0 km/h
1260 19-07-2019 08:55:00 17.6 C 14.4 g/m*3 17.6 C 4.8 km/h
1261 19-07-2019 09:00:00 17.7 C 14.48 g/m*3 17.7 C 0 km/h
1262 19-07-2019 09:05:00 17.8 C 14.57 g/m*3 17.8 C 0 km/h
1263 19-07-2019 09:10:00 17.8 C 14.57 g/m*3 17.8 C 1.6 km/h
1264 19-07-2019 09:15:00 17.8 C 14.42 g/m*3 17.8 C 1.6 km/h
1265 19-07-2019 09:20:00 17.9 C 14.5 g/m*3 17.9 C 0 km/h
1266 19-07-2019 09:25:00 17.9 C 14.5 g/m*3 17.9 C 1.6 km/h
1267 19-07-2019 09:30:00 18.1 C 14.68 g/m*3 18.1 C 0 km/h
1268 19-07-2019 09:35:00 18.1 C 14.68 g/m*3 18.1 C 0 km/h
1269 19-07-2019 09:40:00 18.2 C 14.61 g/m*3 18.2 C 3.2 km/h
1270 19-07-2019 09:45:00 18.3 C 14.7 g/m*3 18.3 C 6.4 km/h
1271 19-07-2019 09:50:00 18.3 C 14.7 g/m*3 18.3 C 8.1 km/h
1272 19-07-2019 09:55:00 18.4 C 14.63 g/m*3 18.4 C 8.1 km/h
1273 19-07-2019 10:00:00 18.6 C 14.8 g/m*3 18.6 C 3.2 km/h
1274 19-07-2019 10:05:00 18.8 C 15.14 g/m*3 18.8 C 1.6 km/h
1275 19-07-2019 10:10:00 18.9 C 14.9 g/m*3 18.9 C 6.4 km/h
Sensor: Nr:Datum:Temp:Abs-Feuchte:Windchill:Wind:
Aussen-T/F 1276 19-07-2019 10:15:00 19 C 14.99 g/m*3 19 C 6.4 km/h
1277 19-07-2019 10:20:00 19.1 C 14.92 g/m*3 19.1 C 6.4 km/h
1278 19-07-2019 10:25:00 19.1 C 14.75 g/m*3 19.1 C 4.8 km/h
1279 19-07-2019 10:30:00 19.3 C 14.93 g/m*3 19.3 C 9.7 km/h
1280 19-07-2019 10:35:00 19.5 C 14.94 g/m*3 19.5 C 8.1 km/h
1281 19-07-2019 10:40:00 19.6 C 15.02 g/m*3 19.6 C 4.8 km/h
1282 19-07-2019 10:45:00 19.7 C 14.94 g/m*3 19.7 C 8.1 km/h
1283 19-07-2019 10:50:00 19.8 C 15.2 g/m*3 19.8 C 3.2 km/h
1284 19-07-2019 10:55:00 19.9 C 14.95 g/m*3 19.9 C 11.3 km/h
1285 19-07-2019 11:00:00 19.9 C 14.95 g/m*3 19.9 C 4.8 km/h
1286 19-07-2019 11:05:00 20 C 15.04 g/m*3 20 C 4.8 km/h
1287 19-07-2019 11:10:00 20 C 14.69 g/m*3 20 C 9.7 km/h
1288 19-07-2019 11:15:00 20.1 C 14.78 g/m*3 20.1 C 8.1 km/h
1289 19-07-2019 11:20:00 20.3 C 14.95 g/m*3 20.3 C 8.1 km/h
1290 19-07-2019 11:25:00 20.6 C 15.03 g/m*3 20.6 C 6.4 km/h
1291 19-07-2019 11:30:00 20.8 C 15.03 g/m*3 20.8 C 8.1 km/h
1292 19-07-2019 11:35:00 20.9 C 15.12 g/m*3 20.9 C 9.7 km/h
1293 19-07-2019 11:40:00 20.9 C 14.75 g/m*3 20.9 C 8.1 km/h
1294 19-07-2019 11:45:00 20.8 C 14.67 g/m*3 20.8 C 8.1 km/h
1295 19-07-2019 11:50:00 20.7 C 14.76 g/m*3 20.7 C 1.6 km/h
1296 19-07-2019 11:55:00 20.7 C 14.58 g/m*3 20.7 C 3.2 km/h
1297 19-07-2019 12:00:00 20.4 C 14.68 g/m*3 20.4 C 8.1 km/h
1298 19-07-2019 12:05:00 20.2 C 14.69 g/m*3 20.2 C 6.4 km/h
1299 19-07-2019 12:10:00 20.1 C 14.95 g/m*3 20.1 C 0 km/h
1300 19-07-2019 12:15:00 20.1 C 15.3 g/m*3 20.1 C 0 km/h
Sensor: Nr:Datum:Temp:Abs-Feuchte:Windchill:Wind:
Aussen-T/F 1301 19-07-2019 12:20:00 19.9 C 15.12 g/m*3 19.9 C 1.6 km/h
1302 19-07-2019 12:25:00 19.8 C 14.86 g/m*3 19.8 C 1.6 km/h
1303 19-07-2019 12:30:00 19.7 C 14.94 g/m*3 19.7 C 1.6 km/h
1304 19-07-2019 12:35:00 19.7 C 14.77 g/m*3 19.7 C 3.2 km/h
1305 19-07-2019 12:40:00 19.8 C 14.86 g/m*3 19.8 C 3.2 km/h
1306 19-07-2019 12:45:00 20.1 C 15.12 g/m*3 20.1 C 1.6 km/h
1307 19-07-2019 12:50:00 20.3 C 14.95 g/m*3 20.3 C 4.8 km/h
1308 19-07-2019 12:55:00 20.4 C 14.86 g/m*3 20.4 C 3.2 km/h
1309 19-07-2019 13:00:00 20.6 C 15.21 g/m*3 20.6 C 0 km/h
1310 19-07-2019 13:05:00 20.7 C 15.3 g/m*3 20.7 C 1.6 km/h
1311 19-07-2019 13:10:00 20.9 C 15.12 g/m*3 20.9 C 8.1 km/h
1312 19-07-2019 13:15:00 21.2 C 14.46 g/m*3 21.2 C 8.1 km/h
1313 19-07-2019 13:20:00 21.6 C 14.41 g/m*3 21.6 C 8.1 km/h
1314 19-07-2019 13:25:00 22.1 C 14.64 g/m*3 22.1 C 9.7 km/h
1315 19-07-2019 13:30:00 22.5 C 14.78 g/m*3 22.5 C 11.3 km/h
1316 19-07-2019 13:35:00 22.8 C 14.22 g/m*3 22.8 C 9.7 km/h
1317 19-07-2019 13:40:00 22.9 C 14.1 g/m*3 22.9 C 6.4 km/h
1318 19-07-2019 13:45:00 22.9 C 13.69 g/m*3 22.9 C 9.7 km/h
1319 19-07-2019 13:50:00 22.8 C 13.61 g/m*3 22.8 C 8.1 km/h
1320 19-07-2019 13:55:00 22.7 C 13.94 g/m*3 22.7 C 9.7 km/h
1321 19-07-2019 14:00:00 22.7 C 14.34 g/m*3 22.7 C 6.4 km/h
1322 19-07-2019 14:05:00 22.7 C 13.94 g/m*3 22.7 C 4.8 km/h
1323 19-07-2019 14:10:00 22.7 C 13.94 g/m*3 22.7 C 6.4 km/h
1324 19-07-2019 14:15:00 22.8 C 14.43 g/m*3 22.8 C 0 km/h
1325 19-07-2019 14:20:00 23 C 12.74 g/m*3 23 C 14.5 km/h
Sensor: Nr:Datum:Temp:Abs-Feuchte:Windchill:Wind:
Aussen-T/F 1326 19-07-2019 14:25:00 23.4 C 13.04 g/m*3 23.4 C 12.9 km/h
1327 19-07-2019 14:30:00 23.8 C 12.05 g/m*3 23.8 C 12.9 km/h
1328 19-07-2019 14:35:00 23.9 C 12.11 g/m*3 23.9 C 12.9 km/h
1329 19-07-2019 14:40:00 24.2 C 12.54 g/m*3 24.2 C 12.9 km/h
1330 19-07-2019 14:45:00 24.4 C 11.35 g/m*3 24.4 C 17.7 km/h
1331 19-07-2019 14:50:00 24.3 C 11.95 g/m*3 24.3 C 14.5 km/h
1332 19-07-2019 14:55:00 24.4 C 11.79 g/m*3 24.4 C 12.9 km/h
1333 19-07-2019 15:00:00 24.5 C 12.09 g/m*3 24.5 C 12.9 km/h
1334 19-07-2019 15:05:00 24.6 C 11.48 g/m*3 24.6 C 9.7 km/h
1335 19-07-2019 15:10:00 24.6 C 12.15 g/m*3 24.6 C 11.3 km/h
1336 19-07-2019 15:15:00 24.8 C 12.29 g/m*3 24.8 C 11.3 km/h
1337 19-07-2019 15:20:00 25 C 12.43 g/m*3 25 C 12.9 km/h
1338 19-07-2019 15:25:00 24.9 C 12.13 g/m*3 24.9 C 8.1 km/h
1339 19-07-2019 15:30:00 24.9 C 11.67 g/m*3 24.9 C 8.1 km/h
1340 19-07-2019 15:35:00 25.1 C 12.04 g/m*3 25.1 C 16.1 km/h
1341 19-07-2019 15:40:00 25.2 C 12.57 g/m*3 25.2 C 8.1 km/h
1342 19-07-2019 15:45:00 25.1 C 12.27 g/m*3 25.1 C 8.1 km/h
1343 19-07-2019 15:50:00 24.9 C 12.13 g/m*3 24.9 C 12.9 km/h
1344 19-07-2019 15:55:00 24.9 C 11.67 g/m*3 24.9 C 9.7 km/h
1345 19-07-2019 16:00:00 24.9 C 11.9 g/m*3 24.9 C 12.9 km/h
1346 19-07-2019 16:05:00 24.9 C 11.45 g/m*3 24.9 C 11.3 km/h
1347 19-07-2019 16:10:00 24.9 C 11.67 g/m*3 24.9 C 9.7 km/h
1348 19-07-2019 16:15:00 24.9 C 11.45 g/m*3 24.9 C 11.3 km/h
1349 19-07-2019 16:20:00 25 C 11.97 g/m*3 25 C 8.1 km/h
1350 19-07-2019 16:25:00 25 C 11.74 g/m*3 25 C 9.7 km/h
Sensor: Nr:Datum:Temp:Abs-Feuchte:Windchill:Wind:
Aussen-T/F 1351 19-07-2019 16:30:00 25.2 C 11.64 g/m*3 25.2 C 8.1 km/h
1352 19-07-2019 16:35:00 25.4 C 11.77 g/m*3 25.4 C 11.3 km/h
1353 19-07-2019 16:40:00 25.7 C 11.97 g/m*3 25.7 C 11.3 km/h
1354 19-07-2019 16:45:00 25.8 C 12.04 g/m*3 25.8 C 9.7 km/h
1355 19-07-2019 16:50:00 25.6 C 12.14 g/m*3 25.6 C 8.1 km/h
1356 19-07-2019 16:55:00 25.3 C 11.71 g/m*3 25.3 C 11.3 km/h
1357 19-07-2019 17:00:00 25.5 C 12.07 g/m*3 25.5 C 4.8 km/h
1358 19-07-2019 17:05:00 25.9 C 12.35 g/m*3 25.9 C 6.4 km/h
1359 19-07-2019 17:10:00 26 C 12.42 g/m*3 26 C 8.1 km/h
1360 19-07-2019 17:15:00 26.1 C 12 g/m*3 26.1 C 8.1 km/h
1361 19-07-2019 17:20:00 26.3 C 11.88 g/m*3 26.3 C 9.7 km/h
1362 19-07-2019 17:25:00 26.5 C 11.51 g/m*3 26.5 C 14.5 km/h
1363 19-07-2019 17:30:00 26.2 C 11.57 g/m*3 26.2 C 11.3 km/h
1364 19-07-2019 17:35:00 26 C 11.93 g/m*3 26 C 8.1 km/h
1365 19-07-2019 17:40:00 25.8 C 11.56 g/m*3 25.8 C 6.4 km/h
1366 19-07-2019 17:45:00 25.6 C 12.14 g/m*3 25.6 C 9.7 km/h
1367 19-07-2019 17:50:00 25.4 C 12.48 g/m*3 25.4 C 8.1 km/h
1368 19-07-2019 17:55:00 25.7 C 12.21 g/m*3 25.7 C 3.2 km/h
1369 19-07-2019 18:00:00 25.9 C 12.1 g/m*3 25.9 C 6.4 km/h
1370 19-07-2019 18:05:00 25.9 C 12.1 g/m*3 25.9 C 9.7 km/h
1371 19-07-2019 18:10:00 25.7 C 11.73 g/m*3 25.7 C 6.4 km/h
1372 19-07-2019 18:15:00 25.7 C 11.73 g/m*3 25.7 C 6.4 km/h
1373 19-07-2019 18:20:00 25.6 C 11.9 g/m*3 25.6 C 6.4 km/h
1374 19-07-2019 18:25:00 25.4 C 11.54 g/m*3 25.4 C 6.4 km/h
1375 19-07-2019 18:30:00 25.3 C 11.71 g/m*3 25.3 C 9.7 km/h
Sensor: Nr:Datum:Temp:Abs-Feuchte:Windchill:Wind:
Aussen-T/F 1376 19-07-2019 18:35:00 25.3 C 11.71 g/m*3 25.3 C 9.7 km/h
1377 19-07-2019 18:40:00 25.2 C 12.57 g/m*3 25.2 C 6.4 km/h
1378 19-07-2019 18:45:00 25.2 C 12.11 g/m*3 25.2 C 3.2 km/h
1379 19-07-2019 18:50:00 25.1 C 13.43 g/m*3 25.1 C 1.6 km/h
1380 19-07-2019 18:55:00 24.9 C 11.9 g/m*3 24.9 C 4.8 km/h
1381 19-07-2019 19:00:00 24.8 C 12.06 g/m*3 24.8 C 1.6 km/h
1382 19-07-2019 19:05:00 24.9 C 13.51 g/m*3 24.9 C 1.6 km/h
1383 19-07-2019 19:10:00 24.9 C 13.73 g/m*3 24.9 C 3.2 km/h
1384 19-07-2019 19:15:00 25.1 C 12.04 g/m*3 25.1 C 6.4 km/h
1385 19-07-2019 19:20:00 25.2 C 14.67 g/m*3 25.2 C 0 km/h
1386 19-07-2019 19:25:00 25.1 C 13.89 g/m*3 25.1 C 1.6 km/h
1387 19-07-2019 19:30:00 24.9 C 14.42 g/m*3 24.9 C 3.2 km/h
1388 19-07-2019 19:35:00 24.8 C 14.34 g/m*3 24.8 C 0 km/h
1389 19-07-2019 19:40:00 24.7 C 14.03 g/m*3 24.7 C 0 km/h
1390 19-07-2019 19:45:00 24.5 C 13.43 g/m*3 24.5 C 1.6 km/h
1391 19-07-2019 19:50:00 24.3 C 13.72 g/m*3 24.3 C 0 km/h
1392 19-07-2019 19:55:00 24.2 C 14.3 g/m*3 24.2 C 0 km/h
1393 19-07-2019 20:00:00 24.1 C 14 g/m*3 24.1 C 0 km/h
1394 19-07-2019 20:05:00 23.9 C 13.85 g/m*3 23.9 C 0 km/h
1395 19-07-2019 20:10:00 23.8 C 13.55 g/m*3 23.8 C 1.6 km/h
1396 19-07-2019 20:15:00 23.7 C 13.48 g/m*3 23.7 C 6.4 km/h
1397 19-07-2019 20:20:00 23.7 C 13.9 g/m*3 23.7 C 0 km/h
1398 19-07-2019 20:25:00 23.5 C 13.32 g/m*3 23.5 C 1.6 km/h
1399 19-07-2019 20:30:00 23.3 C 13.17 g/m*3 23.3 C 0 km/h
1400 19-07-2019 20:35:00 23.1 C 13.02 g/m*3 23.1 C 0 km/h
Sensor: Nr:Datum:Temp:Abs-Feuchte:Windchill:Wind:
Aussen-T/F 1401 19-07-2019 20:40:00 22.8 C 13 g/m*3 22.8 C 0 km/h
1402 19-07-2019 20:45:00 22.6 C 13.26 g/m*3 22.6 C 0 km/h
1403 19-07-2019 20:50:00 22.4 C 13.11 g/m*3 22.4 C 0 km/h
1404 19-07-2019 20:55:00 22.2 C 13.15 g/m*3 22.2 C 0 km/h
1405 19-07-2019 21:00:00 22 C 13 g/m*3 22 C 0 km/h
1406 19-07-2019 21:05:00 21.8 C 13.05 g/m*3 21.8 C 0 km/h
1407 19-07-2019 21:10:00 21.6 C 13.09 g/m*3 21.6 C 0 km/h
1408 19-07-2019 21:15:00 21.3 C 13.05 g/m*3 21.3 C 0 km/h
1409 19-07-2019 21:20:00 21.1 C 12.9 g/m*3 21.1 C 0 km/h
1410 19-07-2019 21:25:00 20.9 C 13.11 g/m*3 20.9 C 0 km/h
1411 19-07-2019 21:30:00 20.8 C 13.04 g/m*3 20.8 C 0 km/h
1412 19-07-2019 21:35:00 20.7 C 13.14 g/m*3 20.7 C 0 km/h
1413 19-07-2019 21:40:00 20.4 C 12.91 g/m*3 20.4 C 0 km/h
1414 19-07-2019 21:45:00 20.3 C 13.01 g/m*3 20.3 C 0 km/h
1415 19-07-2019 21:50:00 20.1 C 13.04 g/m*3 20.1 C 0 km/h
1416 19-07-2019 21:55:00 19.9 C 13.06 g/m*3 19.9 C 0 km/h
1417 19-07-2019 22:00:00 19.8 C 12.98 g/m*3 19.8 C 0 km/h
1418 19-07-2019 22:05:00 19.6 C 13 g/m*3 19.6 C 0 km/h
1419 19-07-2019 22:10:00 19.5 C 13.09 g/m*3 19.5 C 0 km/h
1420 19-07-2019 22:15:00 19.3 C 12.94 g/m*3 19.3 C 0 km/h
1421 19-07-2019 22:20:00 19.2 C 13.03 g/m*3 19.2 C 0 km/h
1422 19-07-2019 22:25:00 19.2 C 13.03 g/m*3 19.2 C 0 km/h
1423 19-07-2019 22:30:00 19.1 C 13.11 g/m*3 19.1 C 0 km/h
1424 19-07-2019 22:35:00 19.1 C 13.11 g/m*3 19.1 C 0 km/h
1425 19-07-2019 22:40:00 19 C 13.04 g/m*3 19 C 0 km/h
Sensor: Nr:Datum:Temp:Abs-Feuchte:Windchill:Wind:
Aussen-T/F 1426 19-07-2019 22:45:00 18.9 C 12.96 g/m*3 18.9 C 0 km/h
1427 19-07-2019 22:50:00 18.9 C 13.12 g/m*3 18.9 C 0 km/h
1428 19-07-2019 22:55:00 18.9 C 13.12 g/m*3 18.9 C 0 km/h
1429 19-07-2019 23:00:00 18.8 C 13.05 g/m*3 18.8 C 0 km/h
1430 19-07-2019 23:05:00 18.8 C 13.21 g/m*3 18.8 C 0 km/h
1431 19-07-2019 23:10:00 18.8 C 13.21 g/m*3 18.8 C 0 km/h
1432 19-07-2019 23:15:00 18.7 C 13.13 g/m*3 18.7 C 0 km/h
1433 19-07-2019 23:20:00 18.7 C 13.13 g/m*3 18.7 C 0 km/h
1434 19-07-2019 23:25:00 18.6 C 13.21 g/m*3 18.6 C 0 km/h
1435 19-07-2019 23:30:00 18.5 C 13.13 g/m*3 18.5 C 0 km/h
1436 19-07-2019 23:35:00 18.4 C 13.05 g/m*3 18.4 C 0 km/h
1437 19-07-2019 23:40:00 18.4 C 13.21 g/m*3 18.4 C 0 km/h
1438 19-07-2019 23:45:00 18.3 C 13.13 g/m*3 18.3 C 0 km/h
1439 19-07-2019 23:50:00 18.2 C 13.06 g/m*3 18.2 C 0 km/h
1440 19-07-2019 23:55:00 18.1 C 13.13 g/m*3 18.1 C 0 km/h

Legende:
   Min
   Max


Maximal/Minimal-Werte vom 15.07.2019 - 19.07.2019

Sensor Min Max Avg
Temp
(Aussen-T/F)
9.8 °C
16-07-2019  05:45:00
27.6 °C
18-07-2019  14:20:00
17.78 °C
Abs-Feuchte
(Aussen-T/F)
8.63 g/m*3
16-07-2019  05:45:00
15.3 g/m*3
19-07-2019  12:15:00
11.26 g/m*3
Windchill
(Aussen-T/F)
9.8 C
16-07-2019  05:45:00
27.6 C
18-07-2019  14:20:00
17.77 C

Die Daten stammen von einer Davis Vantage Pro 2 Wetter-Station und werden unter Linux mit der Software wview2wettercgi und aufbereitet. Alle Angaben erfolgen ohne Gewähr für ihre Vollständigkeit oder Richtigkeit.
Kontakt: Rainer Krienke krienke@uni-koblenz.de . Meine Webseiten an der Uni Koblenz oder privat.
Version: $Revision: 0.78 $